<?xml version="1.0" encoding="UTF-8" standalone="no" ?>
<gpx xmlns="http://www.topografix.com/GPX/1/1" xmlns:xsi="http://www.w3.org/2001/XMLSchema-instance" xsi:schemaLocation="http://www.topografix.com/GPX/1/1 http://www.topografix.com/GPX/1/1/gpx.xsd" version="1.1" creator="VisuGPX - https://www.visugpx.com">
  <metadata>
    <name>gramat-rocamadour</name>
    <desc><![CDATA[par l\'alzou]]></desc>
  </metadata>
  <trk>
    <name><![CDATA[GRAMAT ROCAMADOUR8-5-14]]></name>
    <trkseg>
      <trkpt lat="44.79325" lon="1.69068">
        <ele>322.66</ele>
        <time>2014-05-07T16:51:47Z</time>
      </trkpt>
      <trkpt lat="44.79323" lon="1.69067">
        <ele>319.3</ele>
        <time>2014-05-07T16:52:02Z</time>
      </trkpt>
      <trkpt lat="44.79323" lon="1.69067">
        <ele>323.14</ele>
        <time>2014-05-07T16:52:05Z</time>
      </trkpt>
      <trkpt lat="44.79323" lon="1.69065">
        <ele>321.7</ele>
        <time>2014-05-07T16:52:21Z</time>
      </trkpt>
      <trkpt lat="44.79323" lon="1.69065">
        <ele>319.78</ele>
        <time>2014-05-07T16:52:26Z</time>
      </trkpt>
      <trkpt lat="44.79332" lon="1.69085">
        <ele>308.24</ele>
        <time>2014-05-07T20:37:36Z</time>
      </trkpt>
      <trkpt lat="44.79332" lon="1.69085">
        <ele>308.24</ele>
        <time>2014-05-07T20:37:37Z</time>
      </trkpt>
      <trkpt lat="44.79328" lon="1.69089">
        <ele>308.24</ele>
        <time>2014-05-07T20:37:50Z</time>
      </trkpt>
      <trkpt lat="44.79323" lon="1.69085">
        <ele>306.32</ele>
        <time>2014-05-07T20:41:56Z</time>
      </trkpt>
      <trkpt lat="44.79323" lon="1.69084">
        <ele>307.28</ele>
        <time>2014-05-07T20:41:58Z</time>
      </trkpt>
      <trkpt lat="44.79327" lon="1.69082">
        <ele>307.28</ele>
        <time>2014-05-07T20:42:08Z</time>
      </trkpt>
      <trkpt lat="44.79295" lon="1.69075">
        <ele>289.01</ele>
        <time>2014-05-08T07:32:22Z</time>
      </trkpt>
      <trkpt lat="44.79317" lon="1.6908">
        <ele>288.05</ele>
        <time>2014-05-08T07:32:44Z</time>
      </trkpt>
      <trkpt lat="44.79323" lon="1.69072">
        <ele>289.97</ele>
        <time>2014-05-08T07:33:02Z</time>
      </trkpt>
      <trkpt lat="44.79323" lon="1.69072">
        <ele>293.34</ele>
        <time>2014-05-08T07:33:04Z</time>
      </trkpt>
      <trkpt lat="44.79323" lon="1.69072">
        <ele>292.86</ele>
        <time>2014-05-08T07:33:05Z</time>
      </trkpt>
      <trkpt lat="44.79323" lon="1.69073">
        <ele>296.22</ele>
        <time>2014-05-08T07:33:09Z</time>
      </trkpt>
      <trkpt lat="44.79323" lon="1.69072">
        <ele>296.7</ele>
        <time>2014-05-08T07:33:10Z</time>
      </trkpt>
      <trkpt lat="44.79324" lon="1.69071">
        <ele>298.15</ele>
        <time>2014-05-08T07:33:12Z</time>
      </trkpt>
      <trkpt lat="44.79326" lon="1.6907">
        <ele>301.99</ele>
        <time>2014-05-08T07:33:19Z</time>
      </trkpt>
      <trkpt lat="44.79325" lon="1.69071">
        <ele>304.88</ele>
        <time>2014-05-08T07:33:26Z</time>
      </trkpt>
      <trkpt lat="44.79325" lon="1.69076">
        <ele>308.24</ele>
        <time>2014-05-08T07:33:35Z</time>
      </trkpt>
      <trkpt lat="44.79325" lon="1.69077">
        <ele>308.72</ele>
        <time>2014-05-08T07:33:36Z</time>
      </trkpt>
      <trkpt lat="44.7932" lon="1.6909">
        <ele>312.57</ele>
        <time>2014-05-08T07:33:46Z</time>
      </trkpt>
      <trkpt lat="44.79318" lon="1.69093">
        <ele>313.53</ele>
        <time>2014-05-08T07:33:49Z</time>
      </trkpt>
      <trkpt lat="44.79317" lon="1.69098">
        <ele>314.97</ele>
        <time>2014-05-08T07:33:53Z</time>
      </trkpt>
      <trkpt lat="44.7931" lon="1.69103">
        <ele>317.37</ele>
        <time>2014-05-08T07:34:05Z</time>
      </trkpt>
      <trkpt lat="44.79308" lon="1.69102">
        <ele>318.33</ele>
        <time>2014-05-08T07:34:09Z</time>
      </trkpt>
      <trkpt lat="44.79307" lon="1.69103">
        <ele>319.78</ele>
        <time>2014-05-08T07:34:23Z</time>
      </trkpt>
      <trkpt lat="44.79304" lon="1.69102">
        <ele>319.3</ele>
        <time>2014-05-08T07:34:41Z</time>
      </trkpt>
      <trkpt lat="44.79293" lon="1.69096">
        <ele>319.3</ele>
        <time>2014-05-08T07:34:52Z</time>
      </trkpt>
      <trkpt lat="44.79282" lon="1.69088">
        <ele>317.85</ele>
        <time>2014-05-08T07:35:09Z</time>
      </trkpt>
      <trkpt lat="44.79282" lon="1.69088">
        <ele>317.85</ele>
        <time>2014-05-08T07:35:18Z</time>
      </trkpt>
      <trkpt lat="44.79278" lon="1.69087">
        <ele>317.37</ele>
        <time>2014-05-08T07:35:23Z</time>
      </trkpt>
      <trkpt lat="44.79267" lon="1.69083">
        <ele>316.89</ele>
        <time>2014-05-08T07:35:37Z</time>
      </trkpt>
      <trkpt lat="44.7926" lon="1.69082">
        <ele>316.41</ele>
        <time>2014-05-08T07:35:45Z</time>
      </trkpt>
      <trkpt lat="44.79246" lon="1.69082">
        <ele>315.93</ele>
        <time>2014-05-08T07:36:00Z</time>
      </trkpt>
      <trkpt lat="44.7924" lon="1.6908">
        <ele>315.93</ele>
        <time>2014-05-08T07:36:07Z</time>
      </trkpt>
      <trkpt lat="44.79226" lon="1.69074">
        <ele>314.49</ele>
        <time>2014-05-08T07:36:23Z</time>
      </trkpt>
      <trkpt lat="44.79211" lon="1.6907">
        <ele>313.53</ele>
        <time>2014-05-08T07:36:40Z</time>
      </trkpt>
      <trkpt lat="44.79197" lon="1.69072">
        <ele>312.57</ele>
        <time>2014-05-08T07:36:55Z</time>
      </trkpt>
      <trkpt lat="44.79196" lon="1.69072">
        <ele>312.57</ele>
        <time>2014-05-08T07:36:56Z</time>
      </trkpt>
      <trkpt lat="44.79189" lon="1.69072">
        <ele>312.09</ele>
        <time>2014-05-08T07:37:04Z</time>
      </trkpt>
      <trkpt lat="44.79172" lon="1.69074">
        <ele>311.6</ele>
        <time>2014-05-08T07:37:18Z</time>
      </trkpt>
      <trkpt lat="44.79156" lon="1.69076">
        <ele>311.6</ele>
        <time>2014-05-08T07:37:34Z</time>
      </trkpt>
      <trkpt lat="44.79149" lon="1.69075">
        <ele>311.6</ele>
        <time>2014-05-08T07:37:41Z</time>
      </trkpt>
      <trkpt lat="44.79139" lon="1.69071">
        <ele>311.12</ele>
        <time>2014-05-08T07:37:53Z</time>
      </trkpt>
      <trkpt lat="44.79132" lon="1.69068">
        <ele>310.64</ele>
        <time>2014-05-08T07:38:00Z</time>
      </trkpt>
      <trkpt lat="44.7912" lon="1.69063">
        <ele>309.2</ele>
        <time>2014-05-08T07:38:14Z</time>
      </trkpt>
      <trkpt lat="44.79114" lon="1.6906">
        <ele>308.72</ele>
        <time>2014-05-08T07:38:31Z</time>
      </trkpt>
      <trkpt lat="44.79104" lon="1.69056">
        <ele>307.28</ele>
        <time>2014-05-08T07:38:40Z</time>
      </trkpt>
      <trkpt lat="44.79094" lon="1.69052">
        <ele>306.8</ele>
        <time>2014-05-08T07:38:49Z</time>
      </trkpt>
      <trkpt lat="44.79089" lon="1.69051">
        <ele>306.32</ele>
        <time>2014-05-08T07:38:54Z</time>
      </trkpt>
      <trkpt lat="44.79076" lon="1.69044">
        <ele>306.8</ele>
        <time>2014-05-08T07:39:09Z</time>
      </trkpt>
      <trkpt lat="44.79072" lon="1.6904">
        <ele>306.8</ele>
        <time>2014-05-08T07:39:24Z</time>
      </trkpt>
      <trkpt lat="44.79069" lon="1.69033">
        <ele>306.32</ele>
        <time>2014-05-08T07:39:38Z</time>
      </trkpt>
      <trkpt lat="44.79069" lon="1.69032">
        <ele>306.32</ele>
        <time>2014-05-08T07:39:49Z</time>
      </trkpt>
      <trkpt lat="44.7908" lon="1.6902">
        <ele>306.32</ele>
        <time>2014-05-08T07:40:02Z</time>
      </trkpt>
      <trkpt lat="44.79089" lon="1.69011">
        <ele>304.39</ele>
        <time>2014-05-08T07:40:14Z</time>
      </trkpt>
      <trkpt lat="44.79091" lon="1.6901">
        <ele>304.39</ele>
        <time>2014-05-08T07:40:16Z</time>
      </trkpt>
      <trkpt lat="44.79094" lon="1.69005">
        <ele>304.88</ele>
        <time>2014-05-08T07:40:20Z</time>
      </trkpt>
      <trkpt lat="44.79103" lon="1.68995">
        <ele>303.43</ele>
        <time>2014-05-08T07:40:32Z</time>
      </trkpt>
      <trkpt lat="44.79107" lon="1.68988">
        <ele>302.95</ele>
        <time>2014-05-08T07:40:39Z</time>
      </trkpt>
      <trkpt lat="44.79114" lon="1.68979">
        <ele>301.99</ele>
        <time>2014-05-08T07:40:51Z</time>
      </trkpt>
      <trkpt lat="44.79116" lon="1.68978">
        <ele>301.99</ele>
        <time>2014-05-08T07:40:53Z</time>
      </trkpt>
      <trkpt lat="44.79127" lon="1.68965">
        <ele>301.51</ele>
        <time>2014-05-08T07:41:08Z</time>
      </trkpt>
      <trkpt lat="44.79128" lon="1.68964">
        <ele>301.03</ele>
        <time>2014-05-08T07:41:09Z</time>
      </trkpt>
      <trkpt lat="44.79135" lon="1.68952">
        <ele>301.03</ele>
        <time>2014-05-08T07:41:19Z</time>
      </trkpt>
      <trkpt lat="44.79137" lon="1.68948">
        <ele>301.03</ele>
        <time>2014-05-08T07:41:22Z</time>
      </trkpt>
      <trkpt lat="44.7914" lon="1.68944">
        <ele>300.07</ele>
        <time>2014-05-08T07:41:26Z</time>
      </trkpt>
      <trkpt lat="44.79142" lon="1.68941">
        <ele>300.55</ele>
        <time>2014-05-08T07:41:28Z</time>
      </trkpt>
      <trkpt lat="44.79147" lon="1.68938">
        <ele>300.07</ele>
        <time>2014-05-08T07:41:33Z</time>
      </trkpt>
      <trkpt lat="44.79149" lon="1.68933">
        <ele>300.55</ele>
        <time>2014-05-08T07:41:36Z</time>
      </trkpt>
      <trkpt lat="44.79161" lon="1.68923">
        <ele>300.55</ele>
        <time>2014-05-08T07:41:49Z</time>
      </trkpt>
      <trkpt lat="44.79168" lon="1.68916">
        <ele>300.55</ele>
        <time>2014-05-08T07:41:57Z</time>
      </trkpt>
      <trkpt lat="44.7917" lon="1.68912">
        <ele>300.07</ele>
        <time>2014-05-08T07:42:01Z</time>
      </trkpt>
      <trkpt lat="44.79179" lon="1.689">
        <ele>300.55</ele>
        <time>2014-05-08T07:42:13Z</time>
      </trkpt>
      <trkpt lat="44.7918" lon="1.68899">
        <ele>300.55</ele>
        <time>2014-05-08T07:42:14Z</time>
      </trkpt>
      <trkpt lat="44.79183" lon="1.68897">
        <ele>300.55</ele>
        <time>2014-05-08T07:42:17Z</time>
      </trkpt>
      <trkpt lat="44.79186" lon="1.68892">
        <ele>300.55</ele>
        <time>2014-05-08T07:42:21Z</time>
      </trkpt>
      <trkpt lat="44.79196" lon="1.68874">
        <ele>300.55</ele>
        <time>2014-05-08T07:42:36Z</time>
      </trkpt>
      <trkpt lat="44.79201" lon="1.68872">
        <ele>300.55</ele>
        <time>2014-05-08T07:42:49Z</time>
      </trkpt>
      <trkpt lat="44.7921" lon="1.68858">
        <ele>300.55</ele>
        <time>2014-05-08T07:43:00Z</time>
      </trkpt>
      <trkpt lat="44.79222" lon="1.68842">
        <ele>300.55</ele>
        <time>2014-05-08T07:43:14Z</time>
      </trkpt>
      <trkpt lat="44.79228" lon="1.68834">
        <ele>300.55</ele>
        <time>2014-05-08T07:43:21Z</time>
      </trkpt>
      <trkpt lat="44.79239" lon="1.68814">
        <ele>300.55</ele>
        <time>2014-05-08T07:43:38Z</time>
      </trkpt>
      <trkpt lat="44.79248" lon="1.68796">
        <ele>300.55</ele>
        <time>2014-05-08T07:43:54Z</time>
      </trkpt>
      <trkpt lat="44.79254" lon="1.68785">
        <ele>300.07</ele>
        <time>2014-05-08T07:44:03Z</time>
      </trkpt>
      <trkpt lat="44.79261" lon="1.68773">
        <ele>299.59</ele>
        <time>2014-05-08T07:44:14Z</time>
      </trkpt>
      <trkpt lat="44.79262" lon="1.6877">
        <ele>300.07</ele>
        <time>2014-05-08T07:44:17Z</time>
      </trkpt>
      <trkpt lat="44.79264" lon="1.68764">
        <ele>300.07</ele>
        <time>2014-05-08T07:44:21Z</time>
      </trkpt>
      <trkpt lat="44.79265" lon="1.68761">
        <ele>300.07</ele>
        <time>2014-05-08T07:44:23Z</time>
      </trkpt>
      <trkpt lat="44.79274" lon="1.68742">
        <ele>299.59</ele>
        <time>2014-05-08T07:44:38Z</time>
      </trkpt>
      <trkpt lat="44.79281" lon="1.68723">
        <ele>298.63</ele>
        <time>2014-05-08T07:44:52Z</time>
      </trkpt>
      <trkpt lat="44.79288" lon="1.68703">
        <ele>298.63</ele>
        <time>2014-05-08T07:45:07Z</time>
      </trkpt>
      <trkpt lat="44.79294" lon="1.68684">
        <ele>297.67</ele>
        <time>2014-05-08T07:45:22Z</time>
      </trkpt>
      <trkpt lat="44.79299" lon="1.68669">
        <ele>297.18</ele>
        <time>2014-05-08T07:45:36Z</time>
      </trkpt>
      <trkpt lat="44.79301" lon="1.68663">
        <ele>296.7</ele>
        <time>2014-05-08T07:45:40Z</time>
      </trkpt>
      <trkpt lat="44.79305" lon="1.68643">
        <ele>296.7</ele>
        <time>2014-05-08T07:45:53Z</time>
      </trkpt>
      <trkpt lat="44.79306" lon="1.68638">
        <ele>296.7</ele>
        <time>2014-05-08T07:45:57Z</time>
      </trkpt>
      <trkpt lat="44.7931" lon="1.6862">
        <ele>296.7</ele>
        <time>2014-05-08T07:46:10Z</time>
      </trkpt>
      <trkpt lat="44.79311" lon="1.68616">
        <ele>296.22</ele>
        <time>2014-05-08T07:46:13Z</time>
      </trkpt>
      <trkpt lat="44.79316" lon="1.68597">
        <ele>296.22</ele>
        <time>2014-05-08T07:46:26Z</time>
      </trkpt>
      <trkpt lat="44.79316" lon="1.68594">
        <ele>295.74</ele>
        <time>2014-05-08T07:46:28Z</time>
      </trkpt>
      <trkpt lat="44.79318" lon="1.6859">
        <ele>295.74</ele>
        <time>2014-05-08T07:46:32Z</time>
      </trkpt>
      <trkpt lat="44.79319" lon="1.68585">
        <ele>295.74</ele>
        <time>2014-05-08T07:46:35Z</time>
      </trkpt>
      <trkpt lat="44.79322" lon="1.68574">
        <ele>295.26</ele>
        <time>2014-05-08T07:46:42Z</time>
      </trkpt>
      <trkpt lat="44.79322" lon="1.68572">
        <ele>295.26</ele>
        <time>2014-05-08T07:46:44Z</time>
      </trkpt>
      <trkpt lat="44.79328" lon="1.68549">
        <ele>295.74</ele>
        <time>2014-05-08T07:47:00Z</time>
      </trkpt>
      <trkpt lat="44.79334" lon="1.68529">
        <ele>295.26</ele>
        <time>2014-05-08T07:47:14Z</time>
      </trkpt>
      <trkpt lat="44.79338" lon="1.68511">
        <ele>295.26</ele>
        <time>2014-05-08T07:47:27Z</time>
      </trkpt>
      <trkpt lat="44.7934" lon="1.68502">
        <ele>295.26</ele>
        <time>2014-05-08T07:47:34Z</time>
      </trkpt>
      <trkpt lat="44.79341" lon="1.68498">
        <ele>294.78</ele>
        <time>2014-05-08T07:47:37Z</time>
      </trkpt>
      <trkpt lat="44.79344" lon="1.68484">
        <ele>294.78</ele>
        <time>2014-05-08T07:47:47Z</time>
      </trkpt>
      <trkpt lat="44.79344" lon="1.68481">
        <ele>295.26</ele>
        <time>2014-05-08T07:47:49Z</time>
      </trkpt>
      <trkpt lat="44.7935" lon="1.68455">
        <ele>294.78</ele>
        <time>2014-05-08T07:48:05Z</time>
      </trkpt>
      <trkpt lat="44.79352" lon="1.68449">
        <ele>294.3</ele>
        <time>2014-05-08T07:48:09Z</time>
      </trkpt>
      <trkpt lat="44.79357" lon="1.68426">
        <ele>293.34</ele>
        <time>2014-05-08T07:48:25Z</time>
      </trkpt>
      <trkpt lat="44.79363" lon="1.68404">
        <ele>293.34</ele>
        <time>2014-05-08T07:48:39Z</time>
      </trkpt>
      <trkpt lat="44.79365" lon="1.68397">
        <ele>293.34</ele>
        <time>2014-05-08T07:48:44Z</time>
      </trkpt>
      <trkpt lat="44.79373" lon="1.68373">
        <ele>292.86</ele>
        <time>2014-05-08T07:49:01Z</time>
      </trkpt>
      <trkpt lat="44.79374" lon="1.68372">
        <ele>292.86</ele>
        <time>2014-05-08T07:49:02Z</time>
      </trkpt>
      <trkpt lat="44.7938" lon="1.68357">
        <ele>292.38</ele>
        <time>2014-05-08T07:49:13Z</time>
      </trkpt>
      <trkpt lat="44.79388" lon="1.68336">
        <ele>291.9</ele>
        <time>2014-05-08T07:49:29Z</time>
      </trkpt>
      <trkpt lat="44.79389" lon="1.68334">
        <ele>291.9</ele>
        <time>2014-05-08T07:49:32Z</time>
      </trkpt>
      <trkpt lat="44.79398" lon="1.68319">
        <ele>290.46</ele>
        <time>2014-05-08T07:49:44Z</time>
      </trkpt>
      <trkpt lat="44.79405" lon="1.683">
        <ele>290.94</ele>
        <time>2014-05-08T07:49:58Z</time>
      </trkpt>
      <trkpt lat="44.79411" lon="1.68281">
        <ele>291.42</ele>
        <time>2014-05-08T07:50:11Z</time>
      </trkpt>
      <trkpt lat="44.79415" lon="1.6827">
        <ele>291.9</ele>
        <time>2014-05-08T07:50:19Z</time>
      </trkpt>
      <trkpt lat="44.79424" lon="1.6825">
        <ele>291.9</ele>
        <time>2014-05-08T07:50:35Z</time>
      </trkpt>
      <trkpt lat="44.79426" lon="1.68247">
        <ele>292.38</ele>
        <time>2014-05-08T07:50:38Z</time>
      </trkpt>
      <trkpt lat="44.79436" lon="1.68228">
        <ele>292.86</ele>
        <time>2014-05-08T07:50:54Z</time>
      </trkpt>
      <trkpt lat="44.79446" lon="1.68211">
        <ele>292.86</ele>
        <time>2014-05-08T07:51:08Z</time>
      </trkpt>
      <trkpt lat="44.79456" lon="1.68195">
        <ele>293.34</ele>
        <time>2014-05-08T07:51:22Z</time>
      </trkpt>
      <trkpt lat="44.79466" lon="1.68178">
        <ele>293.82</ele>
        <time>2014-05-08T07:51:37Z</time>
      </trkpt>
      <trkpt lat="44.79477" lon="1.68164">
        <ele>293.34</ele>
        <time>2014-05-08T07:51:50Z</time>
      </trkpt>
      <trkpt lat="44.79481" lon="1.68157">
        <ele>293.34</ele>
        <time>2014-05-08T07:51:57Z</time>
      </trkpt>
      <trkpt lat="44.79483" lon="1.68154">
        <ele>293.34</ele>
        <time>2014-05-08T07:51:59Z</time>
      </trkpt>
      <trkpt lat="44.79492" lon="1.68142">
        <ele>292.86</ele>
        <time>2014-05-08T07:52:10Z</time>
      </trkpt>
      <trkpt lat="44.79503" lon="1.68128">
        <ele>292.86</ele>
        <time>2014-05-08T07:52:23Z</time>
      </trkpt>
      <trkpt lat="44.79513" lon="1.68114">
        <ele>292.38</ele>
        <time>2014-05-08T07:52:36Z</time>
      </trkpt>
      <trkpt lat="44.79527" lon="1.68099">
        <ele>292.38</ele>
        <time>2014-05-08T07:52:51Z</time>
      </trkpt>
      <trkpt lat="44.79541" lon="1.68084">
        <ele>291.9</ele>
        <time>2014-05-08T07:53:06Z</time>
      </trkpt>
      <trkpt lat="44.79553" lon="1.68072">
        <ele>291.42</ele>
        <time>2014-05-08T07:53:19Z</time>
      </trkpt>
      <trkpt lat="44.79566" lon="1.68059">
        <ele>290.46</ele>
        <time>2014-05-08T07:53:33Z</time>
      </trkpt>
      <trkpt lat="44.79567" lon="1.68058">
        <ele>289.97</ele>
        <time>2014-05-08T07:53:43Z</time>
      </trkpt>
      <trkpt lat="44.7957" lon="1.68057">
        <ele>290.46</ele>
        <time>2014-05-08T07:53:45Z</time>
      </trkpt>
      <trkpt lat="44.79579" lon="1.68049">
        <ele>289.49</ele>
        <time>2014-05-08T07:53:54Z</time>
      </trkpt>
      <trkpt lat="44.79592" lon="1.68037">
        <ele>288.53</ele>
        <time>2014-05-08T07:54:08Z</time>
      </trkpt>
      <trkpt lat="44.79608" lon="1.68025">
        <ele>287.09</ele>
        <time>2014-05-08T07:54:23Z</time>
      </trkpt>
      <trkpt lat="44.79623" lon="1.68014">
        <ele>285.65</ele>
        <time>2014-05-08T07:54:38Z</time>
      </trkpt>
      <trkpt lat="44.79625" lon="1.68013">
        <ele>285.65</ele>
        <time>2014-05-08T07:54:40Z</time>
      </trkpt>
      <trkpt lat="44.79627" lon="1.6801">
        <ele>285.65</ele>
        <time>2014-05-08T07:54:43Z</time>
      </trkpt>
      <trkpt lat="44.79643" lon="1.67998">
        <ele>284.21</ele>
        <time>2014-05-08T07:54:58Z</time>
      </trkpt>
      <trkpt lat="44.79649" lon="1.67992">
        <ele>284.21</ele>
        <time>2014-05-08T07:55:04Z</time>
      </trkpt>
      <trkpt lat="44.79652" lon="1.67993">
        <ele>283.73</ele>
        <time>2014-05-08T07:55:15Z</time>
      </trkpt>
      <trkpt lat="44.79652" lon="1.67993">
        <ele>284.21</ele>
        <time>2014-05-08T07:55:41Z</time>
      </trkpt>
      <trkpt lat="44.79652" lon="1.67993">
        <ele>284.21</ele>
        <time>2014-05-08T07:55:57Z</time>
      </trkpt>
      <trkpt lat="44.79652" lon="1.67993">
        <ele>283.73</ele>
        <time>2014-05-08T07:56:28Z</time>
      </trkpt>
      <trkpt lat="44.79652" lon="1.67993">
        <ele>283.73</ele>
        <time>2014-05-08T07:56:30Z</time>
      </trkpt>
      <trkpt lat="44.79655" lon="1.67987">
        <ele>283.73</ele>
        <time>2014-05-08T07:56:41Z</time>
      </trkpt>
      <trkpt lat="44.79661" lon="1.67982">
        <ele>283.25</ele>
        <time>2014-05-08T07:56:53Z</time>
      </trkpt>
      <trkpt lat="44.79667" lon="1.67978">
        <ele>283.25</ele>
        <time>2014-05-08T07:57:07Z</time>
      </trkpt>
      <trkpt lat="44.79667" lon="1.67978">
        <ele>283.25</ele>
        <time>2014-05-08T07:57:39Z</time>
      </trkpt>
      <trkpt lat="44.79667" lon="1.67978">
        <ele>283.73</ele>
        <time>2014-05-08T07:58:14Z</time>
      </trkpt>
      <trkpt lat="44.79667" lon="1.67977">
        <ele>283.25</ele>
        <time>2014-05-08T07:58:47Z</time>
      </trkpt>
      <trkpt lat="44.79672" lon="1.67972">
        <ele>283.25</ele>
        <time>2014-05-08T07:59:10Z</time>
      </trkpt>
      <trkpt lat="44.7968" lon="1.67964">
        <ele>282.77</ele>
        <time>2014-05-08T07:59:25Z</time>
      </trkpt>
      <trkpt lat="44.79691" lon="1.67955">
        <ele>282.77</ele>
        <time>2014-05-08T07:59:40Z</time>
      </trkpt>
      <trkpt lat="44.797" lon="1.67948">
        <ele>283.25</ele>
        <time>2014-05-08T07:59:55Z</time>
      </trkpt>
      <trkpt lat="44.79709" lon="1.67938">
        <ele>283.25</ele>
        <time>2014-05-08T08:00:10Z</time>
      </trkpt>
      <trkpt lat="44.79719" lon="1.67927">
        <ele>282.77</ele>
        <time>2014-05-08T08:00:23Z</time>
      </trkpt>
      <trkpt lat="44.7973" lon="1.67918">
        <ele>283.73</ele>
        <time>2014-05-08T08:00:39Z</time>
      </trkpt>
      <trkpt lat="44.79743" lon="1.67909">
        <ele>283.73</ele>
        <time>2014-05-08T08:00:53Z</time>
      </trkpt>
      <trkpt lat="44.79747" lon="1.67907">
        <ele>284.21</ele>
        <time>2014-05-08T08:00:58Z</time>
      </trkpt>
      <trkpt lat="44.79763" lon="1.67902">
        <ele>284.69</ele>
        <time>2014-05-08T08:01:16Z</time>
      </trkpt>
      <trkpt lat="44.79773" lon="1.67898">
        <ele>284.69</ele>
        <time>2014-05-08T08:01:28Z</time>
      </trkpt>
      <trkpt lat="44.7978" lon="1.67894">
        <ele>284.69</ele>
        <time>2014-05-08T08:01:36Z</time>
      </trkpt>
      <trkpt lat="44.79778" lon="1.67881">
        <ele>285.17</ele>
        <time>2014-05-08T08:01:50Z</time>
      </trkpt>
      <trkpt lat="44.79776" lon="1.67874">
        <ele>284.69</ele>
        <time>2014-05-08T08:01:55Z</time>
      </trkpt>
      <trkpt lat="44.79771" lon="1.67862">
        <ele>284.69</ele>
        <time>2014-05-08T08:02:09Z</time>
      </trkpt>
      <trkpt lat="44.7977" lon="1.67853">
        <ele>284.69</ele>
        <time>2014-05-08T08:02:22Z</time>
      </trkpt>
      <trkpt lat="44.79769" lon="1.67843">
        <ele>284.21</ele>
        <time>2014-05-08T08:02:35Z</time>
      </trkpt>
      <trkpt lat="44.79768" lon="1.67835">
        <ele>283.73</ele>
        <time>2014-05-08T08:02:48Z</time>
      </trkpt>
      <trkpt lat="44.79767" lon="1.67834">
        <ele>283.25</ele>
        <time>2014-05-08T08:03:04Z</time>
      </trkpt>
      <trkpt lat="44.79766" lon="1.67833">
        <ele>283.25</ele>
        <time>2014-05-08T08:03:23Z</time>
      </trkpt>
      <trkpt lat="44.79775" lon="1.67833">
        <ele>284.21</ele>
        <time>2014-05-08T08:03:35Z</time>
      </trkpt>
      <trkpt lat="44.79788" lon="1.67834">
        <ele>284.21</ele>
        <time>2014-05-08T08:03:46Z</time>
      </trkpt>
      <trkpt lat="44.79791" lon="1.67834">
        <ele>283.73</ele>
        <time>2014-05-08T08:03:49Z</time>
      </trkpt>
      <trkpt lat="44.79797" lon="1.67831">
        <ele>284.21</ele>
        <time>2014-05-08T08:03:54Z</time>
      </trkpt>
      <trkpt lat="44.79807" lon="1.67823">
        <ele>284.21</ele>
        <time>2014-05-08T08:04:05Z</time>
      </trkpt>
      <trkpt lat="44.79811" lon="1.6782">
        <ele>283.73</ele>
        <time>2014-05-08T08:04:10Z</time>
      </trkpt>
      <trkpt lat="44.79819" lon="1.67812">
        <ele>283.73</ele>
        <time>2014-05-08T08:04:20Z</time>
      </trkpt>
      <trkpt lat="44.79827" lon="1.67805">
        <ele>283.73</ele>
        <time>2014-05-08T08:04:33Z</time>
      </trkpt>
      <trkpt lat="44.79833" lon="1.67798">
        <ele>283.25</ele>
        <time>2014-05-08T08:04:40Z</time>
      </trkpt>
      <trkpt lat="44.79843" lon="1.67786">
        <ele>282.77</ele>
        <time>2014-05-08T08:04:53Z</time>
      </trkpt>
      <trkpt lat="44.79844" lon="1.67783">
        <ele>282.28</ele>
        <time>2014-05-08T08:05:09Z</time>
      </trkpt>
      <trkpt lat="44.79845" lon="1.67782">
        <ele>282.28</ele>
        <time>2014-05-08T08:05:26Z</time>
      </trkpt>
      <trkpt lat="44.79845" lon="1.67783">
        <ele>282.77</ele>
        <time>2014-05-08T08:05:35Z</time>
      </trkpt>
      <trkpt lat="44.79846" lon="1.67785">
        <ele>282.77</ele>
        <time>2014-05-08T08:05:46Z</time>
      </trkpt>
      <trkpt lat="44.79852" lon="1.67777">
        <ele>282.28</ele>
        <time>2014-05-08T08:05:54Z</time>
      </trkpt>
      <trkpt lat="44.79861" lon="1.67767">
        <ele>281.8</ele>
        <time>2014-05-08T08:06:04Z</time>
      </trkpt>
      <trkpt lat="44.79871" lon="1.67753">
        <ele>281.32</ele>
        <time>2014-05-08T08:06:18Z</time>
      </trkpt>
      <trkpt lat="44.79881" lon="1.67739">
        <ele>280.84</ele>
        <time>2014-05-08T08:06:33Z</time>
      </trkpt>
      <trkpt lat="44.79882" lon="1.67738">
        <ele>280.84</ele>
        <time>2014-05-08T08:06:34Z</time>
      </trkpt>
      <trkpt lat="44.79886" lon="1.67733">
        <ele>280.84</ele>
        <time>2014-05-08T08:06:40Z</time>
      </trkpt>
      <trkpt lat="44.79898" lon="1.67718">
        <ele>280.36</ele>
        <time>2014-05-08T08:06:56Z</time>
      </trkpt>
      <trkpt lat="44.79905" lon="1.67698">
        <ele>279.4</ele>
        <time>2014-05-08T08:07:12Z</time>
      </trkpt>
      <trkpt lat="44.79909" lon="1.67681">
        <ele>279.88</ele>
        <time>2014-05-08T08:07:25Z</time>
      </trkpt>
      <trkpt lat="44.79915" lon="1.6766">
        <ele>279.88</ele>
        <time>2014-05-08T08:07:42Z</time>
      </trkpt>
      <trkpt lat="44.79918" lon="1.67648">
        <ele>279.88</ele>
        <time>2014-05-08T08:07:51Z</time>
      </trkpt>
      <trkpt lat="44.79919" lon="1.67631">
        <ele>279.4</ele>
        <time>2014-05-08T08:08:05Z</time>
      </trkpt>
      <trkpt lat="44.7992" lon="1.67629">
        <ele>279.4</ele>
        <time>2014-05-08T08:08:06Z</time>
      </trkpt>
      <trkpt lat="44.79922" lon="1.67614">
        <ele>279.4</ele>
        <time>2014-05-08T08:08:18Z</time>
      </trkpt>
      <trkpt lat="44.79925" lon="1.67594">
        <ele>279.4</ele>
        <time>2014-05-08T08:08:32Z</time>
      </trkpt>
      <trkpt lat="44.79927" lon="1.67582">
        <ele>278.92</ele>
        <time>2014-05-08T08:08:42Z</time>
      </trkpt>
      <trkpt lat="44.7993" lon="1.67564">
        <ele>278.92</ele>
        <time>2014-05-08T08:08:57Z</time>
      </trkpt>
      <trkpt lat="44.7993" lon="1.67552">
        <ele>278.92</ele>
        <time>2014-05-08T08:09:05Z</time>
      </trkpt>
      <trkpt lat="44.79931" lon="1.67548">
        <ele>278.92</ele>
        <time>2014-05-08T08:09:08Z</time>
      </trkpt>
      <trkpt lat="44.79932" lon="1.67534">
        <ele>278.92</ele>
        <time>2014-05-08T08:09:21Z</time>
      </trkpt>
      <trkpt lat="44.79933" lon="1.67519">
        <ele>279.4</ele>
        <time>2014-05-08T08:09:32Z</time>
      </trkpt>
      <trkpt lat="44.79937" lon="1.67493">
        <ele>278.44</ele>
        <time>2014-05-08T08:09:49Z</time>
      </trkpt>
      <trkpt lat="44.7994" lon="1.67474">
        <ele>277.96</ele>
        <time>2014-05-08T08:10:03Z</time>
      </trkpt>
      <trkpt lat="44.79943" lon="1.67455">
        <ele>277.96</ele>
        <time>2014-05-08T08:10:16Z</time>
      </trkpt>
      <trkpt lat="44.79947" lon="1.67436">
        <ele>277.48</ele>
        <time>2014-05-08T08:10:30Z</time>
      </trkpt>
      <trkpt lat="44.79947" lon="1.67435">
        <ele>277.48</ele>
        <time>2014-05-08T08:10:31Z</time>
      </trkpt>
      <trkpt lat="44.79952" lon="1.67416">
        <ele>277.48</ele>
        <time>2014-05-08T08:10:46Z</time>
      </trkpt>
      <trkpt lat="44.79953" lon="1.67415">
        <ele>277.48</ele>
        <time>2014-05-08T08:10:47Z</time>
      </trkpt>
      <trkpt lat="44.79955" lon="1.6741">
        <ele>276.52</ele>
        <time>2014-05-08T08:10:51Z</time>
      </trkpt>
      <trkpt lat="44.7996" lon="1.67395">
        <ele>277</ele>
        <time>2014-05-08T08:11:06Z</time>
      </trkpt>
      <trkpt lat="44.79965" lon="1.67379">
        <ele>276.04</ele>
        <time>2014-05-08T08:11:18Z</time>
      </trkpt>
      <trkpt lat="44.79966" lon="1.67372">
        <ele>276.52</ele>
        <time>2014-05-08T08:11:24Z</time>
      </trkpt>
      <trkpt lat="44.79973" lon="1.67355">
        <ele>276.04</ele>
        <time>2014-05-08T08:11:39Z</time>
      </trkpt>
      <trkpt lat="44.7998" lon="1.67337">
        <ele>276.04</ele>
        <time>2014-05-08T08:11:53Z</time>
      </trkpt>
      <trkpt lat="44.79986" lon="1.67321">
        <ele>276.52</ele>
        <time>2014-05-08T08:12:07Z</time>
      </trkpt>
      <trkpt lat="44.79992" lon="1.67301">
        <ele>276.52</ele>
        <time>2014-05-08T08:12:24Z</time>
      </trkpt>
      <trkpt lat="44.79997" lon="1.67284">
        <ele>276.52</ele>
        <time>2014-05-08T08:12:37Z</time>
      </trkpt>
      <trkpt lat="44.79998" lon="1.67282">
        <ele>276.52</ele>
        <time>2014-05-08T08:12:39Z</time>
      </trkpt>
      <trkpt lat="44.80002" lon="1.67264">
        <ele>276.04</ele>
        <time>2014-05-08T08:12:54Z</time>
      </trkpt>
      <trkpt lat="44.80008" lon="1.67245">
        <ele>276.52</ele>
        <time>2014-05-08T08:13:09Z</time>
      </trkpt>
      <trkpt lat="44.8001" lon="1.67237">
        <ele>277</ele>
        <time>2014-05-08T08:13:15Z</time>
      </trkpt>
      <trkpt lat="44.80013" lon="1.67217">
        <ele>277</ele>
        <time>2014-05-08T08:13:29Z</time>
      </trkpt>
      <trkpt lat="44.80016" lon="1.67202">
        <ele>277</ele>
        <time>2014-05-08T08:13:42Z</time>
      </trkpt>
      <trkpt lat="44.8002" lon="1.67183">
        <ele>277.48</ele>
        <time>2014-05-08T08:13:56Z</time>
      </trkpt>
      <trkpt lat="44.80026" lon="1.67167">
        <ele>277.96</ele>
        <time>2014-05-08T08:14:10Z</time>
      </trkpt>
      <trkpt lat="44.80027" lon="1.6716">
        <ele>277.96</ele>
        <time>2014-05-08T08:14:16Z</time>
      </trkpt>
      <trkpt lat="44.80035" lon="1.67142">
        <ele>277.48</ele>
        <time>2014-05-08T08:14:32Z</time>
      </trkpt>
      <trkpt lat="44.80041" lon="1.67127">
        <ele>277.48</ele>
        <time>2014-05-08T08:14:45Z</time>
      </trkpt>
      <trkpt lat="44.80046" lon="1.6711">
        <ele>277</ele>
        <time>2014-05-08T08:14:59Z</time>
      </trkpt>
      <trkpt lat="44.8005" lon="1.67089">
        <ele>276.04</ele>
        <time>2014-05-08T08:15:14Z</time>
      </trkpt>
      <trkpt lat="44.8005" lon="1.67087">
        <ele>276.04</ele>
        <time>2014-05-08T08:15:15Z</time>
      </trkpt>
      <trkpt lat="44.8005" lon="1.6708">
        <ele>275.56</ele>
        <time>2014-05-08T08:15:20Z</time>
      </trkpt>
      <trkpt lat="44.80052" lon="1.6707">
        <ele>275.56</ele>
        <time>2014-05-08T08:15:28Z</time>
      </trkpt>
      <trkpt lat="44.80054" lon="1.67047">
        <ele>274.59</ele>
        <time>2014-05-08T08:15:44Z</time>
      </trkpt>
      <trkpt lat="44.80055" lon="1.67042">
        <ele>274.11</ele>
        <time>2014-05-08T08:15:48Z</time>
      </trkpt>
      <trkpt lat="44.80057" lon="1.67016">
        <ele>272.67</ele>
        <time>2014-05-08T08:16:05Z</time>
      </trkpt>
      <trkpt lat="44.8006" lon="1.66996">
        <ele>272.67</ele>
        <time>2014-05-08T08:16:19Z</time>
      </trkpt>
      <trkpt lat="44.8006" lon="1.66994">
        <ele>271.71</ele>
        <time>2014-05-08T08:16:21Z</time>
      </trkpt>
      <trkpt lat="44.80061" lon="1.6698">
        <ele>272.19</ele>
        <time>2014-05-08T08:16:30Z</time>
      </trkpt>
      <trkpt lat="44.80061" lon="1.6697">
        <ele>272.19</ele>
        <time>2014-05-08T08:16:37Z</time>
      </trkpt>
      <trkpt lat="44.80061" lon="1.66959">
        <ele>272.19</ele>
        <time>2014-05-08T08:16:45Z</time>
      </trkpt>
      <trkpt lat="44.8006" lon="1.66948">
        <ele>272.19</ele>
        <time>2014-05-08T08:16:53Z</time>
      </trkpt>
      <trkpt lat="44.80059" lon="1.66931">
        <ele>272.67</ele>
        <time>2014-05-08T08:17:03Z</time>
      </trkpt>
      <trkpt lat="44.80063" lon="1.66912">
        <ele>272.67</ele>
        <time>2014-05-08T08:17:19Z</time>
      </trkpt>
      <trkpt lat="44.80063" lon="1.66911">
        <ele>273.15</ele>
        <time>2014-05-08T08:17:20Z</time>
      </trkpt>
      <trkpt lat="44.80063" lon="1.66907">
        <ele>273.15</ele>
        <time>2014-05-08T08:17:23Z</time>
      </trkpt>
      <trkpt lat="44.80063" lon="1.669">
        <ele>273.63</ele>
        <time>2014-05-08T08:17:27Z</time>
      </trkpt>
      <trkpt lat="44.80071" lon="1.6688">
        <ele>274.11</ele>
        <time>2014-05-08T08:17:43Z</time>
      </trkpt>
      <trkpt lat="44.80075" lon="1.66873">
        <ele>274.59</ele>
        <time>2014-05-08T08:17:50Z</time>
      </trkpt>
      <trkpt lat="44.80077" lon="1.66867">
        <ele>274.11</ele>
        <time>2014-05-08T08:17:55Z</time>
      </trkpt>
      <trkpt lat="44.80082" lon="1.66842">
        <ele>275.56</ele>
        <time>2014-05-08T08:18:12Z</time>
      </trkpt>
      <trkpt lat="44.80086" lon="1.6682">
        <ele>275.56</ele>
        <time>2014-05-08T08:18:28Z</time>
      </trkpt>
      <trkpt lat="44.80088" lon="1.668">
        <ele>276.04</ele>
        <time>2014-05-08T08:18:42Z</time>
      </trkpt>
      <trkpt lat="44.8009" lon="1.66781">
        <ele>276.04</ele>
        <time>2014-05-08T08:18:54Z</time>
      </trkpt>
      <trkpt lat="44.80093" lon="1.66761">
        <ele>275.07</ele>
        <time>2014-05-08T08:19:08Z</time>
      </trkpt>
      <trkpt lat="44.80096" lon="1.66738">
        <ele>275.56</ele>
        <time>2014-05-08T08:19:24Z</time>
      </trkpt>
      <trkpt lat="44.80097" lon="1.66728">
        <ele>275.56</ele>
        <time>2014-05-08T08:19:31Z</time>
      </trkpt>
      <trkpt lat="44.80098" lon="1.66724">
        <ele>275.56</ele>
        <time>2014-05-08T08:19:34Z</time>
      </trkpt>
      <trkpt lat="44.80102" lon="1.66702">
        <ele>276.04</ele>
        <time>2014-05-08T08:19:50Z</time>
      </trkpt>
      <trkpt lat="44.80103" lon="1.6669">
        <ele>276.04</ele>
        <time>2014-05-08T08:20:00Z</time>
      </trkpt>
      <trkpt lat="44.80104" lon="1.66669">
        <ele>276.04</ele>
        <time>2014-05-08T08:20:16Z</time>
      </trkpt>
      <trkpt lat="44.80109" lon="1.66653">
        <ele>276.04</ele>
        <time>2014-05-08T08:20:31Z</time>
      </trkpt>
      <trkpt lat="44.80111" lon="1.6664">
        <ele>276.52</ele>
        <time>2014-05-08T08:20:39Z</time>
      </trkpt>
      <trkpt lat="44.80113" lon="1.66634">
        <ele>276.04</ele>
        <time>2014-05-08T08:20:43Z</time>
      </trkpt>
      <trkpt lat="44.80115" lon="1.66621">
        <ele>275.56</ele>
        <time>2014-05-08T08:20:52Z</time>
      </trkpt>
      <trkpt lat="44.80116" lon="1.66599">
        <ele>275.07</ele>
        <time>2014-05-08T08:21:08Z</time>
      </trkpt>
      <trkpt lat="44.80114" lon="1.66594">
        <ele>274.59</ele>
        <time>2014-05-08T08:21:22Z</time>
      </trkpt>
      <trkpt lat="44.80113" lon="1.66593">
        <ele>274.59</ele>
        <time>2014-05-08T08:21:37Z</time>
      </trkpt>
      <trkpt lat="44.80108" lon="1.6659">
        <ele>275.07</ele>
        <time>2014-05-08T08:21:52Z</time>
      </trkpt>
      <trkpt lat="44.80099" lon="1.66587">
        <ele>274.59</ele>
        <time>2014-05-08T08:22:08Z</time>
      </trkpt>
      <trkpt lat="44.8009" lon="1.66585">
        <ele>274.11</ele>
        <time>2014-05-08T08:22:18Z</time>
      </trkpt>
      <trkpt lat="44.8008" lon="1.66581">
        <ele>273.63</ele>
        <time>2014-05-08T08:22:30Z</time>
      </trkpt>
      <trkpt lat="44.8007" lon="1.66581">
        <ele>273.15</ele>
        <time>2014-05-08T08:22:41Z</time>
      </trkpt>
      <trkpt lat="44.80063" lon="1.66582">
        <ele>272.67</ele>
        <time>2014-05-08T08:22:49Z</time>
      </trkpt>
      <trkpt lat="44.80051" lon="1.6658">
        <ele>272.19</ele>
        <time>2014-05-08T08:22:59Z</time>
      </trkpt>
      <trkpt lat="44.80039" lon="1.66574">
        <ele>272.19</ele>
        <time>2014-05-08T08:23:14Z</time>
      </trkpt>
      <trkpt lat="44.80025" lon="1.66565">
        <ele>271.71</ele>
        <time>2014-05-08T08:23:29Z</time>
      </trkpt>
      <trkpt lat="44.80012" lon="1.66558">
        <ele>271.71</ele>
        <time>2014-05-08T08:23:43Z</time>
      </trkpt>
      <trkpt lat="44.79998" lon="1.66548">
        <ele>271.71</ele>
        <time>2014-05-08T08:23:57Z</time>
      </trkpt>
      <trkpt lat="44.79989" lon="1.66544">
        <ele>271.71</ele>
        <time>2014-05-08T08:24:04Z</time>
      </trkpt>
      <trkpt lat="44.79985" lon="1.6654">
        <ele>271.71</ele>
        <time>2014-05-08T08:24:10Z</time>
      </trkpt>
      <trkpt lat="44.79974" lon="1.66527">
        <ele>272.19</ele>
        <time>2014-05-08T08:24:23Z</time>
      </trkpt>
      <trkpt lat="44.79969" lon="1.66523">
        <ele>271.71</ele>
        <time>2014-05-08T08:24:29Z</time>
      </trkpt>
      <trkpt lat="44.79956" lon="1.66515">
        <ele>272.67</ele>
        <time>2014-05-08T08:24:44Z</time>
      </trkpt>
      <trkpt lat="44.79943" lon="1.66505">
        <ele>272.67</ele>
        <time>2014-05-08T08:24:59Z</time>
      </trkpt>
      <trkpt lat="44.79939" lon="1.66501">
        <ele>272.67</ele>
        <time>2014-05-08T08:25:05Z</time>
      </trkpt>
      <trkpt lat="44.79936" lon="1.66499">
        <ele>272.19</ele>
        <time>2014-05-08T08:25:08Z</time>
      </trkpt>
      <trkpt lat="44.79926" lon="1.66492">
        <ele>272.67</ele>
        <time>2014-05-08T08:25:19Z</time>
      </trkpt>
      <trkpt lat="44.79917" lon="1.66482">
        <ele>272.67</ele>
        <time>2014-05-08T08:25:29Z</time>
      </trkpt>
      <trkpt lat="44.79906" lon="1.66472">
        <ele>273.15</ele>
        <time>2014-05-08T08:25:43Z</time>
      </trkpt>
      <trkpt lat="44.79899" lon="1.66469">
        <ele>273.63</ele>
        <time>2014-05-08T08:25:51Z</time>
      </trkpt>
      <trkpt lat="44.79896" lon="1.66467">
        <ele>273.63</ele>
        <time>2014-05-08T08:25:55Z</time>
      </trkpt>
      <trkpt lat="44.79884" lon="1.66457">
        <ele>274.11</ele>
        <time>2014-05-08T08:26:09Z</time>
      </trkpt>
      <trkpt lat="44.79884" lon="1.66456">
        <ele>274.11</ele>
        <time>2014-05-08T08:26:10Z</time>
      </trkpt>
      <trkpt lat="44.7987" lon="1.66442">
        <ele>274.11</ele>
        <time>2014-05-08T08:26:25Z</time>
      </trkpt>
      <trkpt lat="44.79867" lon="1.66437">
        <ele>274.59</ele>
        <time>2014-05-08T08:26:30Z</time>
      </trkpt>
      <trkpt lat="44.79854" lon="1.66424">
        <ele>275.56</ele>
        <time>2014-05-08T08:26:45Z</time>
      </trkpt>
      <trkpt lat="44.79849" lon="1.66419">
        <ele>275.07</ele>
        <time>2014-05-08T08:26:53Z</time>
      </trkpt>
      <trkpt lat="44.79836" lon="1.66405">
        <ele>275.07</ele>
        <time>2014-05-08T08:27:08Z</time>
      </trkpt>
      <trkpt lat="44.79834" lon="1.66402">
        <ele>275.56</ele>
        <time>2014-05-08T08:27:10Z</time>
      </trkpt>
      <trkpt lat="44.79822" lon="1.66387">
        <ele>274.59</ele>
        <time>2014-05-08T08:27:26Z</time>
      </trkpt>
      <trkpt lat="44.79816" lon="1.66377">
        <ele>273.63</ele>
        <time>2014-05-08T08:27:34Z</time>
      </trkpt>
      <trkpt lat="44.79815" lon="1.66373">
        <ele>273.63</ele>
        <time>2014-05-08T08:27:38Z</time>
      </trkpt>
      <trkpt lat="44.79807" lon="1.66358">
        <ele>272.19</ele>
        <time>2014-05-08T08:27:51Z</time>
      </trkpt>
      <trkpt lat="44.79794" lon="1.66345">
        <ele>269.79</ele>
        <time>2014-05-08T08:28:09Z</time>
      </trkpt>
      <trkpt lat="44.79793" lon="1.66345">
        <ele>269.79</ele>
        <time>2014-05-08T08:28:12Z</time>
      </trkpt>
      <trkpt lat="44.79786" lon="1.6634">
        <ele>268.83</ele>
        <time>2014-05-08T08:28:19Z</time>
      </trkpt>
      <trkpt lat="44.79783" lon="1.66339">
        <ele>268.35</ele>
        <time>2014-05-08T08:28:22Z</time>
      </trkpt>
      <trkpt lat="44.79767" lon="1.66329">
        <ele>267.38</ele>
        <time>2014-05-08T08:28:36Z</time>
      </trkpt>
      <trkpt lat="44.79755" lon="1.66325">
        <ele>265.46</ele>
        <time>2014-05-08T08:28:49Z</time>
      </trkpt>
      <trkpt lat="44.7975" lon="1.66326">
        <ele>264.98</ele>
        <time>2014-05-08T08:28:54Z</time>
      </trkpt>
      <trkpt lat="44.79746" lon="1.66327">
        <ele>264.5</ele>
        <time>2014-05-08T08:28:59Z</time>
      </trkpt>
      <trkpt lat="44.79741" lon="1.66329">
        <ele>264.02</ele>
        <time>2014-05-08T08:29:03Z</time>
      </trkpt>
      <trkpt lat="44.79735" lon="1.66334">
        <ele>263.06</ele>
        <time>2014-05-08T08:29:11Z</time>
      </trkpt>
      <trkpt lat="44.79729" lon="1.66337">
        <ele>262.1</ele>
        <time>2014-05-08T08:29:17Z</time>
      </trkpt>
      <trkpt lat="44.79717" lon="1.66349">
        <ele>260.65</ele>
        <time>2014-05-08T08:29:33Z</time>
      </trkpt>
      <trkpt lat="44.79709" lon="1.66355">
        <ele>259.69</ele>
        <time>2014-05-08T08:29:43Z</time>
      </trkpt>
      <trkpt lat="44.79702" lon="1.66358">
        <ele>258.25</ele>
        <time>2014-05-08T08:29:52Z</time>
      </trkpt>
      <trkpt lat="44.797" lon="1.66358">
        <ele>258.25</ele>
        <time>2014-05-08T08:29:54Z</time>
      </trkpt>
      <trkpt lat="44.79689" lon="1.66366">
        <ele>256.81</ele>
        <time>2014-05-08T08:30:08Z</time>
      </trkpt>
      <trkpt lat="44.79687" lon="1.66368">
        <ele>256.33</ele>
        <time>2014-05-08T08:30:10Z</time>
      </trkpt>
      <trkpt lat="44.79675" lon="1.66373">
        <ele>255.37</ele>
        <time>2014-05-08T08:30:23Z</time>
      </trkpt>
      <trkpt lat="44.79663" lon="1.66378">
        <ele>253.93</ele>
        <time>2014-05-08T08:30:35Z</time>
      </trkpt>
      <trkpt lat="44.79657" lon="1.66381">
        <ele>252.96</ele>
        <time>2014-05-08T08:30:41Z</time>
      </trkpt>
      <trkpt lat="44.79643" lon="1.66376">
        <ele>251.52</ele>
        <time>2014-05-08T08:30:55Z</time>
      </trkpt>
      <trkpt lat="44.79641" lon="1.66376">
        <ele>251.52</ele>
        <time>2014-05-08T08:30:57Z</time>
      </trkpt>
      <trkpt lat="44.79623" lon="1.66377">
        <ele>250.08</ele>
        <time>2014-05-08T08:31:12Z</time>
      </trkpt>
      <trkpt lat="44.79619" lon="1.66379">
        <ele>249.12</ele>
        <time>2014-05-08T08:31:17Z</time>
      </trkpt>
      <trkpt lat="44.79609" lon="1.66381">
        <ele>248.16</ele>
        <time>2014-05-08T08:31:28Z</time>
      </trkpt>
      <trkpt lat="44.79597" lon="1.66384">
        <ele>246.23</ele>
        <time>2014-05-08T08:31:41Z</time>
      </trkpt>
      <trkpt lat="44.7959" lon="1.66386">
        <ele>245.75</ele>
        <time>2014-05-08T08:31:50Z</time>
      </trkpt>
      <trkpt lat="44.79584" lon="1.66389">
        <ele>244.79</ele>
        <time>2014-05-08T08:31:56Z</time>
      </trkpt>
      <trkpt lat="44.79572" lon="1.66393">
        <ele>243.35</ele>
        <time>2014-05-08T08:32:08Z</time>
      </trkpt>
      <trkpt lat="44.79569" lon="1.66395">
        <ele>243.35</ele>
        <time>2014-05-08T08:32:12Z</time>
      </trkpt>
      <trkpt lat="44.79564" lon="1.66396">
        <ele>242.87</ele>
        <time>2014-05-08T08:32:17Z</time>
      </trkpt>
      <trkpt lat="44.79562" lon="1.66397">
        <ele>241.91</ele>
        <time>2014-05-08T08:32:19Z</time>
      </trkpt>
      <trkpt lat="44.79554" lon="1.664">
        <ele>241.43</ele>
        <time>2014-05-08T08:32:29Z</time>
      </trkpt>
      <trkpt lat="44.79548" lon="1.66404">
        <ele>240.47</ele>
        <time>2014-05-08T08:32:36Z</time>
      </trkpt>
      <trkpt lat="44.79543" lon="1.66408">
        <ele>239.99</ele>
        <time>2014-05-08T08:32:42Z</time>
      </trkpt>
      <trkpt lat="44.79539" lon="1.66411">
        <ele>239.02</ele>
        <time>2014-05-08T08:32:47Z</time>
      </trkpt>
      <trkpt lat="44.79535" lon="1.66414">
        <ele>238.54</ele>
        <time>2014-05-08T08:32:53Z</time>
      </trkpt>
      <trkpt lat="44.79526" lon="1.6642">
        <ele>236.62</ele>
        <time>2014-05-08T08:33:05Z</time>
      </trkpt>
      <trkpt lat="44.79522" lon="1.66422">
        <ele>236.14</ele>
        <time>2014-05-08T08:33:09Z</time>
      </trkpt>
      <trkpt lat="44.79517" lon="1.66424">
        <ele>236.14</ele>
        <time>2014-05-08T08:33:14Z</time>
      </trkpt>
      <trkpt lat="44.79515" lon="1.66425">
        <ele>235.18</ele>
        <time>2014-05-08T08:33:16Z</time>
      </trkpt>
      <trkpt lat="44.79514" lon="1.66426">
        <ele>235.66</ele>
        <time>2014-05-08T08:33:18Z</time>
      </trkpt>
      <trkpt lat="44.79505" lon="1.66439">
        <ele>233.74</ele>
        <time>2014-05-08T08:33:31Z</time>
      </trkpt>
      <trkpt lat="44.79504" lon="1.66441">
        <ele>233.26</ele>
        <time>2014-05-08T08:33:32Z</time>
      </trkpt>
      <trkpt lat="44.79499" lon="1.6645">
        <ele>232.3</ele>
        <time>2014-05-08T08:33:41Z</time>
      </trkpt>
      <trkpt lat="44.79489" lon="1.6647">
        <ele>230.85</ele>
        <time>2014-05-08T08:33:53Z</time>
      </trkpt>
      <trkpt lat="44.79488" lon="1.66471">
        <ele>230.37</ele>
        <time>2014-05-08T08:33:54Z</time>
      </trkpt>
      <trkpt lat="44.79484" lon="1.66481">
        <ele>229.41</ele>
        <time>2014-05-08T08:34:02Z</time>
      </trkpt>
      <trkpt lat="44.79479" lon="1.66488">
        <ele>228.93</ele>
        <time>2014-05-08T08:34:11Z</time>
      </trkpt>
      <trkpt lat="44.79478" lon="1.66491">
        <ele>228.45</ele>
        <time>2014-05-08T08:34:13Z</time>
      </trkpt>
      <trkpt lat="44.79475" lon="1.66496">
        <ele>228.45</ele>
        <time>2014-05-08T08:34:18Z</time>
      </trkpt>
      <trkpt lat="44.79472" lon="1.66504">
        <ele>227.97</ele>
        <time>2014-05-08T08:34:23Z</time>
      </trkpt>
      <trkpt lat="44.79472" lon="1.66509">
        <ele>227.49</ele>
        <time>2014-05-08T08:34:26Z</time>
      </trkpt>
      <trkpt lat="44.79472" lon="1.66514">
        <ele>227.49</ele>
        <time>2014-05-08T08:34:29Z</time>
      </trkpt>
      <trkpt lat="44.79463" lon="1.66534">
        <ele>225.57</ele>
        <time>2014-05-08T08:34:44Z</time>
      </trkpt>
      <trkpt lat="44.79456" lon="1.66546">
        <ele>224.12</ele>
        <time>2014-05-08T08:34:54Z</time>
      </trkpt>
      <trkpt lat="44.79455" lon="1.66552">
        <ele>223.16</ele>
        <time>2014-05-08T08:34:58Z</time>
      </trkpt>
      <trkpt lat="44.79453" lon="1.66558">
        <ele>222.68</ele>
        <time>2014-05-08T08:35:02Z</time>
      </trkpt>
      <trkpt lat="44.79451" lon="1.66571">
        <ele>221.72</ele>
        <time>2014-05-08T08:35:10Z</time>
      </trkpt>
      <trkpt lat="44.79444" lon="1.66591">
        <ele>220.28</ele>
        <time>2014-05-08T08:35:23Z</time>
      </trkpt>
      <trkpt lat="44.79442" lon="1.66595">
        <ele>219.8</ele>
        <time>2014-05-08T08:35:26Z</time>
      </trkpt>
      <trkpt lat="44.79437" lon="1.66607">
        <ele>218.84</ele>
        <time>2014-05-08T08:35:34Z</time>
      </trkpt>
      <trkpt lat="44.79435" lon="1.6662">
        <ele>217.88</ele>
        <time>2014-05-08T08:35:42Z</time>
      </trkpt>
      <trkpt lat="44.79435" lon="1.66631">
        <ele>216.91</ele>
        <time>2014-05-08T08:35:48Z</time>
      </trkpt>
      <trkpt lat="44.79435" lon="1.66635">
        <ele>216.43</ele>
        <time>2014-05-08T08:35:50Z</time>
      </trkpt>
      <trkpt lat="44.79436" lon="1.6664">
        <ele>216.43</ele>
        <time>2014-05-08T08:35:53Z</time>
      </trkpt>
      <trkpt lat="44.79437" lon="1.66652">
        <ele>215.47</ele>
        <time>2014-05-08T08:36:01Z</time>
      </trkpt>
      <trkpt lat="44.79437" lon="1.66655">
        <ele>214.99</ele>
        <time>2014-05-08T08:36:08Z</time>
      </trkpt>
      <trkpt lat="44.79438" lon="1.66661">
        <ele>214.51</ele>
        <time>2014-05-08T08:36:21Z</time>
      </trkpt>
      <trkpt lat="44.79438" lon="1.66662">
        <ele>214.51</ele>
        <time>2014-05-08T08:36:43Z</time>
      </trkpt>
      <trkpt lat="44.79439" lon="1.66665">
        <ele>214.03</ele>
        <time>2014-05-08T08:36:47Z</time>
      </trkpt>
      <trkpt lat="44.79436" lon="1.66675">
        <ele>213.07</ele>
        <time>2014-05-08T08:36:57Z</time>
      </trkpt>
      <trkpt lat="44.79434" lon="1.66671">
        <ele>212.59</ele>
        <time>2014-05-08T08:37:00Z</time>
      </trkpt>
      <trkpt lat="44.79427" lon="1.66657">
        <ele>211.63</ele>
        <time>2014-05-08T08:37:15Z</time>
      </trkpt>
      <trkpt lat="44.79424" lon="1.66647">
        <ele>210.67</ele>
        <time>2014-05-08T08:37:22Z</time>
      </trkpt>
      <trkpt lat="44.79423" lon="1.66644">
        <ele>210.67</ele>
        <time>2014-05-08T08:37:24Z</time>
      </trkpt>
      <trkpt lat="44.79419" lon="1.66624">
        <ele>208.74</ele>
        <time>2014-05-08T08:37:39Z</time>
      </trkpt>
      <trkpt lat="44.79417" lon="1.66611">
        <ele>207.78</ele>
        <time>2014-05-08T08:37:51Z</time>
      </trkpt>
      <trkpt lat="44.79418" lon="1.6661">
        <ele>207.78</ele>
        <time>2014-05-08T08:37:55Z</time>
      </trkpt>
      <trkpt lat="44.79417" lon="1.66605">
        <ele>206.82</ele>
        <time>2014-05-08T08:37:59Z</time>
      </trkpt>
      <trkpt lat="44.79418" lon="1.6658">
        <ele>203.94</ele>
        <time>2014-05-08T08:38:15Z</time>
      </trkpt>
      <trkpt lat="44.7942" lon="1.6657">
        <ele>202.98</ele>
        <time>2014-05-08T08:38:30Z</time>
      </trkpt>
      <trkpt lat="44.79421" lon="1.66561">
        <ele>202.01</ele>
        <time>2014-05-08T08:38:42Z</time>
      </trkpt>
      <trkpt lat="44.79426" lon="1.66538">
        <ele>200.09</ele>
        <time>2014-05-08T08:38:58Z</time>
      </trkpt>
      <trkpt lat="44.7943" lon="1.66515">
        <ele>199.13</ele>
        <time>2014-05-08T08:39:12Z</time>
      </trkpt>
      <trkpt lat="44.79431" lon="1.66514">
        <ele>198.65</ele>
        <time>2014-05-08T08:39:14Z</time>
      </trkpt>
      <trkpt lat="44.79435" lon="1.66502">
        <ele>197.69</ele>
        <time>2014-05-08T08:39:23Z</time>
      </trkpt>
      <trkpt lat="44.79437" lon="1.66494">
        <ele>196.73</ele>
        <time>2014-05-08T08:39:29Z</time>
      </trkpt>
      <trkpt lat="44.79439" lon="1.6649">
        <ele>195.77</ele>
        <time>2014-05-08T08:39:32Z</time>
      </trkpt>
      <trkpt lat="44.79444" lon="1.66474">
        <ele>194.8</ele>
        <time>2014-05-08T08:39:44Z</time>
      </trkpt>
      <trkpt lat="44.79449" lon="1.66456">
        <ele>193.36</ele>
        <time>2014-05-08T08:39:57Z</time>
      </trkpt>
      <trkpt lat="44.79453" lon="1.66438">
        <ele>191.92</ele>
        <time>2014-05-08T08:40:10Z</time>
      </trkpt>
      <trkpt lat="44.79458" lon="1.66419">
        <ele>190.48</ele>
        <time>2014-05-08T08:40:24Z</time>
      </trkpt>
      <trkpt lat="44.79464" lon="1.66399">
        <ele>188.56</ele>
        <time>2014-05-08T08:40:38Z</time>
      </trkpt>
      <trkpt lat="44.79469" lon="1.66384">
        <ele>187.59</ele>
        <time>2014-05-08T08:40:50Z</time>
      </trkpt>
      <trkpt lat="44.79475" lon="1.66368">
        <ele>185.19</ele>
        <time>2014-05-08T08:41:02Z</time>
      </trkpt>
      <trkpt lat="44.79481" lon="1.66353">
        <ele>184.71</ele>
        <time>2014-05-08T08:41:14Z</time>
      </trkpt>
      <trkpt lat="44.79482" lon="1.66351">
        <ele>184.23</ele>
        <time>2014-05-08T08:41:16Z</time>
      </trkpt>
      <trkpt lat="44.79492" lon="1.66333">
        <ele>182.31</ele>
        <time>2014-05-08T08:41:30Z</time>
      </trkpt>
      <trkpt lat="44.79497" lon="1.66325">
        <ele>182.31</ele>
        <time>2014-05-08T08:41:46Z</time>
      </trkpt>
      <trkpt lat="44.79498" lon="1.66324">
        <ele>181.83</ele>
        <time>2014-05-08T08:42:08Z</time>
      </trkpt>
      <trkpt lat="44.79499" lon="1.66325">
        <ele>182.31</ele>
        <time>2014-05-08T08:42:24Z</time>
      </trkpt>
      <trkpt lat="44.79503" lon="1.6632">
        <ele>181.83</ele>
        <time>2014-05-08T08:42:38Z</time>
      </trkpt>
      <trkpt lat="44.79512" lon="1.66314">
        <ele>180.87</ele>
        <time>2014-05-08T08:42:51Z</time>
      </trkpt>
      <trkpt lat="44.79513" lon="1.66313">
        <ele>180.87</ele>
        <time>2014-05-08T08:42:56Z</time>
      </trkpt>
      <trkpt lat="44.79521" lon="1.66311">
        <ele>179.9</ele>
        <time>2014-05-08T08:43:06Z</time>
      </trkpt>
      <trkpt lat="44.79531" lon="1.66306">
        <ele>179.42</ele>
        <time>2014-05-08T08:43:20Z</time>
      </trkpt>
      <trkpt lat="44.79542" lon="1.66297">
        <ele>179.42</ele>
        <time>2014-05-08T08:43:34Z</time>
      </trkpt>
      <trkpt lat="44.79545" lon="1.66294">
        <ele>179.42</ele>
        <time>2014-05-08T08:43:38Z</time>
      </trkpt>
      <trkpt lat="44.7955" lon="1.66288">
        <ele>179.9</ele>
        <time>2014-05-08T08:43:45Z</time>
      </trkpt>
      <trkpt lat="44.79555" lon="1.66274">
        <ele>179.9</ele>
        <time>2014-05-08T08:43:58Z</time>
      </trkpt>
      <trkpt lat="44.79567" lon="1.66269">
        <ele>179.9</ele>
        <time>2014-05-08T08:44:11Z</time>
      </trkpt>
      <trkpt lat="44.7957" lon="1.66268">
        <ele>179.9</ele>
        <time>2014-05-08T08:44:20Z</time>
      </trkpt>
      <trkpt lat="44.79587" lon="1.66267">
        <ele>181.35</ele>
        <time>2014-05-08T08:44:33Z</time>
      </trkpt>
      <trkpt lat="44.79598" lon="1.66256">
        <ele>182.31</ele>
        <time>2014-05-08T08:44:47Z</time>
      </trkpt>
      <trkpt lat="44.79599" lon="1.66255">
        <ele>182.31</ele>
        <time>2014-05-08T08:44:48Z</time>
      </trkpt>
      <trkpt lat="44.79611" lon="1.66244">
        <ele>183.27</ele>
        <time>2014-05-08T08:45:03Z</time>
      </trkpt>
      <trkpt lat="44.79622" lon="1.66236">
        <ele>183.27</ele>
        <time>2014-05-08T08:45:16Z</time>
      </trkpt>
      <trkpt lat="44.7963" lon="1.6623">
        <ele>183.75</ele>
        <time>2014-05-08T08:45:27Z</time>
      </trkpt>
      <trkpt lat="44.79642" lon="1.66223">
        <ele>184.23</ele>
        <time>2014-05-08T08:45:39Z</time>
      </trkpt>
      <trkpt lat="44.79657" lon="1.66215">
        <ele>184.23</ele>
        <time>2014-05-08T08:45:54Z</time>
      </trkpt>
      <trkpt lat="44.79663" lon="1.66213">
        <ele>184.23</ele>
        <time>2014-05-08T08:46:08Z</time>
      </trkpt>
      <trkpt lat="44.79673" lon="1.66204">
        <ele>184.23</ele>
        <time>2014-05-08T08:46:17Z</time>
      </trkpt>
      <trkpt lat="44.79679" lon="1.662">
        <ele>180.38</ele>
        <time>2014-05-08T08:46:23Z</time>
      </trkpt>
      <trkpt lat="44.7968" lon="1.662">
        <ele>184.23</ele>
        <time>2014-05-08T08:46:24Z</time>
      </trkpt>
      <trkpt lat="44.79685" lon="1.66197">
        <ele>182.31</ele>
        <time>2014-05-08T08:46:33Z</time>
      </trkpt>
      <trkpt lat="44.79686" lon="1.66194">
        <ele>182.31</ele>
        <time>2014-05-08T08:46:45Z</time>
      </trkpt>
      <trkpt lat="44.79686" lon="1.66194">
        <ele>182.31</ele>
        <time>2014-05-08T08:47:15Z</time>
      </trkpt>
      <trkpt lat="44.79687" lon="1.66195">
        <ele>182.79</ele>
        <time>2014-05-08T08:47:36Z</time>
      </trkpt>
      <trkpt lat="44.79687" lon="1.66195">
        <ele>182.79</ele>
        <time>2014-05-08T08:48:02Z</time>
      </trkpt>
      <trkpt lat="44.7969" lon="1.66192">
        <ele>182.79</ele>
        <time>2014-05-08T08:48:10Z</time>
      </trkpt>
      <trkpt lat="44.79693" lon="1.66191">
        <ele>181.83</ele>
        <time>2014-05-08T08:48:14Z</time>
      </trkpt>
      <trkpt lat="44.79699" lon="1.66182">
        <ele>181.35</ele>
        <time>2014-05-08T08:48:26Z</time>
      </trkpt>
      <trkpt lat="44.79701" lon="1.66185">
        <ele>181.35</ele>
        <time>2014-05-08T08:48:48Z</time>
      </trkpt>
      <trkpt lat="44.79701" lon="1.66185">
        <ele>180.87</ele>
        <time>2014-05-08T08:49:12Z</time>
      </trkpt>
      <trkpt lat="44.79701" lon="1.66185">
        <ele>180.87</ele>
        <time>2014-05-08T08:49:37Z</time>
      </trkpt>
      <trkpt lat="44.79702" lon="1.66182">
        <ele>180.38</ele>
        <time>2014-05-08T08:50:00Z</time>
      </trkpt>
      <trkpt lat="44.79707" lon="1.66169">
        <ele>179.42</ele>
        <time>2014-05-08T08:50:14Z</time>
      </trkpt>
      <trkpt lat="44.79712" lon="1.66162">
        <ele>178.94</ele>
        <time>2014-05-08T08:50:31Z</time>
      </trkpt>
      <trkpt lat="44.79718" lon="1.6615">
        <ele>178.46</ele>
        <time>2014-05-08T08:50:45Z</time>
      </trkpt>
      <trkpt lat="44.79719" lon="1.66148">
        <ele>177.98</ele>
        <time>2014-05-08T08:50:47Z</time>
      </trkpt>
      <trkpt lat="44.79724" lon="1.66145">
        <ele>177.5</ele>
        <time>2014-05-08T08:51:01Z</time>
      </trkpt>
      <trkpt lat="44.79738" lon="1.66137">
        <ele>177.02</ele>
        <time>2014-05-08T08:51:16Z</time>
      </trkpt>
      <trkpt lat="44.79749" lon="1.66135">
        <ele>177.02</ele>
        <time>2014-05-08T08:51:28Z</time>
      </trkpt>
      <trkpt lat="44.79759" lon="1.6613">
        <ele>177.02</ele>
        <time>2014-05-08T08:51:39Z</time>
      </trkpt>
      <trkpt lat="44.79767" lon="1.66124">
        <ele>177.02</ele>
        <time>2014-05-08T08:51:49Z</time>
      </trkpt>
      <trkpt lat="44.79773" lon="1.66122">
        <ele>176.54</ele>
        <time>2014-05-08T08:51:54Z</time>
      </trkpt>
      <trkpt lat="44.79778" lon="1.66121">
        <ele>176.54</ele>
        <time>2014-05-08T08:51:58Z</time>
      </trkpt>
      <trkpt lat="44.79794" lon="1.66111">
        <ele>176.54</ele>
        <time>2014-05-08T08:52:14Z</time>
      </trkpt>
      <trkpt lat="44.79806" lon="1.66109">
        <ele>176.54</ele>
        <time>2014-05-08T08:52:27Z</time>
      </trkpt>
      <trkpt lat="44.7982" lon="1.66107">
        <ele>177.02</ele>
        <time>2014-05-08T08:52:41Z</time>
      </trkpt>
      <trkpt lat="44.79835" lon="1.66103">
        <ele>176.54</ele>
        <time>2014-05-08T08:52:53Z</time>
      </trkpt>
      <trkpt lat="44.79852" lon="1.66108">
        <ele>176.06</ele>
        <time>2014-05-08T08:53:06Z</time>
      </trkpt>
      <trkpt lat="44.79854" lon="1.66107">
        <ele>176.54</ele>
        <time>2014-05-08T08:53:08Z</time>
      </trkpt>
      <trkpt lat="44.7987" lon="1.66106">
        <ele>176.54</ele>
        <time>2014-05-08T08:53:22Z</time>
      </trkpt>
      <trkpt lat="44.79888" lon="1.6611">
        <ele>177.02</ele>
        <time>2014-05-08T08:53:35Z</time>
      </trkpt>
      <trkpt lat="44.79901" lon="1.66111">
        <ele>176.54</ele>
        <time>2014-05-08T08:53:47Z</time>
      </trkpt>
      <trkpt lat="44.79918" lon="1.6611">
        <ele>175.58</ele>
        <time>2014-05-08T08:54:00Z</time>
      </trkpt>
      <trkpt lat="44.79921" lon="1.66109">
        <ele>175.58</ele>
        <time>2014-05-08T08:54:02Z</time>
      </trkpt>
      <trkpt lat="44.79937" lon="1.66101">
        <ele>175.58</ele>
        <time>2014-05-08T08:54:17Z</time>
      </trkpt>
      <trkpt lat="44.79937" lon="1.66099">
        <ele>175.58</ele>
        <time>2014-05-08T08:54:18Z</time>
      </trkpt>
      <trkpt lat="44.79947" lon="1.66081">
        <ele>175.58</ele>
        <time>2014-05-08T08:54:33Z</time>
      </trkpt>
      <trkpt lat="44.79953" lon="1.66065">
        <ele>175.58</ele>
        <time>2014-05-08T08:54:45Z</time>
      </trkpt>
      <trkpt lat="44.79957" lon="1.66056">
        <ele>175.58</ele>
        <time>2014-05-08T08:54:51Z</time>
      </trkpt>
      <trkpt lat="44.7996" lon="1.6605">
        <ele>176.06</ele>
        <time>2014-05-08T08:54:57Z</time>
      </trkpt>
      <trkpt lat="44.79961" lon="1.66035">
        <ele>175.58</ele>
        <time>2014-05-08T08:55:04Z</time>
      </trkpt>
      <trkpt lat="44.79967" lon="1.66008">
        <ele>174.62</ele>
        <time>2014-05-08T08:55:19Z</time>
      </trkpt>
      <trkpt lat="44.79972" lon="1.65987">
        <ele>174.62</ele>
        <time>2014-05-08T08:55:35Z</time>
      </trkpt>
      <trkpt lat="44.79977" lon="1.65973">
        <ele>174.62</ele>
        <time>2014-05-08T08:55:48Z</time>
      </trkpt>
      <trkpt lat="44.79981" lon="1.65957">
        <ele>175.58</ele>
        <time>2014-05-08T08:56:03Z</time>
      </trkpt>
      <trkpt lat="44.79981" lon="1.65952">
        <ele>177.02</ele>
        <time>2014-05-08T08:56:17Z</time>
      </trkpt>
      <trkpt lat="44.79985" lon="1.65947">
        <ele>178.46</ele>
        <time>2014-05-08T08:56:32Z</time>
      </trkpt>
      <trkpt lat="44.79994" lon="1.65943">
        <ele>179.42</ele>
        <time>2014-05-08T08:56:47Z</time>
      </trkpt>
      <trkpt lat="44.79999" lon="1.65933">
        <ele>179.42</ele>
        <time>2014-05-08T08:57:02Z</time>
      </trkpt>
      <trkpt lat="44.80008" lon="1.6593">
        <ele>179.9</ele>
        <time>2014-05-08T08:57:16Z</time>
      </trkpt>
      <trkpt lat="44.80011" lon="1.65924">
        <ele>179.9</ele>
        <time>2014-05-08T08:57:23Z</time>
      </trkpt>
      <trkpt lat="44.80016" lon="1.65917">
        <ele>180.38</ele>
        <time>2014-05-08T08:57:29Z</time>
      </trkpt>
      <trkpt lat="44.80023" lon="1.6591">
        <ele>177.02</ele>
        <time>2014-05-08T08:57:46Z</time>
      </trkpt>
      <trkpt lat="44.80023" lon="1.65903">
        <ele>175.1</ele>
        <time>2014-05-08T08:58:03Z</time>
      </trkpt>
      <trkpt lat="44.80023" lon="1.65895">
        <ele>173.66</ele>
        <time>2014-05-08T08:58:09Z</time>
      </trkpt>
      <trkpt lat="44.80031" lon="1.65871">
        <ele>173.17</ele>
        <time>2014-05-08T08:58:26Z</time>
      </trkpt>
      <trkpt lat="44.80039" lon="1.65858">
        <ele>172.69</ele>
        <time>2014-05-08T08:58:40Z</time>
      </trkpt>
      <trkpt lat="44.8004" lon="1.65854">
        <ele>172.69</ele>
        <time>2014-05-08T08:58:43Z</time>
      </trkpt>
      <trkpt lat="44.80049" lon="1.65844">
        <ele>173.17</ele>
        <time>2014-05-08T08:58:58Z</time>
      </trkpt>
      <trkpt lat="44.80051" lon="1.65837">
        <ele>172.21</ele>
        <time>2014-05-08T08:59:03Z</time>
      </trkpt>
      <trkpt lat="44.80056" lon="1.65818">
        <ele>172.21</ele>
        <time>2014-05-08T08:59:16Z</time>
      </trkpt>
      <trkpt lat="44.80058" lon="1.65813">
        <ele>172.21</ele>
        <time>2014-05-08T08:59:20Z</time>
      </trkpt>
      <trkpt lat="44.80064" lon="1.65796">
        <ele>172.21</ele>
        <time>2014-05-08T08:59:34Z</time>
      </trkpt>
      <trkpt lat="44.80061" lon="1.65789">
        <ele>170.77</ele>
        <time>2014-05-08T08:59:48Z</time>
      </trkpt>
      <trkpt lat="44.80061" lon="1.65788">
        <ele>172.69</ele>
        <time>2014-05-08T09:00:07Z</time>
      </trkpt>
      <trkpt lat="44.8006" lon="1.65783">
        <ele>172.21</ele>
        <time>2014-05-08T09:00:23Z</time>
      </trkpt>
      <trkpt lat="44.80059" lon="1.65772">
        <ele>173.66</ele>
        <time>2014-05-08T09:00:35Z</time>
      </trkpt>
      <trkpt lat="44.80055" lon="1.65763">
        <ele>173.66</ele>
        <time>2014-05-08T09:00:48Z</time>
      </trkpt>
      <trkpt lat="44.80049" lon="1.65758">
        <ele>173.17</ele>
        <time>2014-05-08T09:00:57Z</time>
      </trkpt>
      <trkpt lat="44.80043" lon="1.65745">
        <ele>171.73</ele>
        <time>2014-05-08T09:01:11Z</time>
      </trkpt>
      <trkpt lat="44.80041" lon="1.65741">
        <ele>171.73</ele>
        <time>2014-05-08T09:01:17Z</time>
      </trkpt>
      <trkpt lat="44.80038" lon="1.65736">
        <ele>171.25</ele>
        <time>2014-05-08T09:01:20Z</time>
      </trkpt>
      <trkpt lat="44.80027" lon="1.65718">
        <ele>171.25</ele>
        <time>2014-05-08T09:01:34Z</time>
      </trkpt>
      <trkpt lat="44.80024" lon="1.65709">
        <ele>170.77</ele>
        <time>2014-05-08T09:01:49Z</time>
      </trkpt>
      <trkpt lat="44.80016" lon="1.65695">
        <ele>171.25</ele>
        <time>2014-05-08T09:02:06Z</time>
      </trkpt>
      <trkpt lat="44.80009" lon="1.65681">
        <ele>171.25</ele>
        <time>2014-05-08T09:02:19Z</time>
      </trkpt>
      <trkpt lat="44.79999" lon="1.65671">
        <ele>170.29</ele>
        <time>2014-05-08T09:02:32Z</time>
      </trkpt>
      <trkpt lat="44.79999" lon="1.65671">
        <ele>170.77</ele>
        <time>2014-05-08T09:02:54Z</time>
      </trkpt>
      <trkpt lat="44.79999" lon="1.65671">
        <ele>170.77</ele>
        <time>2014-05-08T09:03:18Z</time>
      </trkpt>
      <trkpt lat="44.79999" lon="1.65671">
        <ele>170.77</ele>
        <time>2014-05-08T09:03:46Z</time>
      </trkpt>
      <trkpt lat="44.79999" lon="1.65671">
        <ele>171.25</ele>
        <time>2014-05-08T09:04:13Z</time>
      </trkpt>
      <trkpt lat="44.79999" lon="1.6567">
        <ele>171.25</ele>
        <time>2014-05-08T09:04:35Z</time>
      </trkpt>
      <trkpt lat="44.79998" lon="1.65669">
        <ele>171.73</ele>
        <time>2014-05-08T09:04:50Z</time>
      </trkpt>
      <trkpt lat="44.79998" lon="1.65669">
        <ele>172.21</ele>
        <time>2014-05-08T09:05:05Z</time>
      </trkpt>
      <trkpt lat="44.79998" lon="1.65668">
        <ele>172.21</ele>
        <time>2014-05-08T09:05:25Z</time>
      </trkpt>
      <trkpt lat="44.79986" lon="1.65667">
        <ele>172.69</ele>
        <time>2014-05-08T09:05:48Z</time>
      </trkpt>
      <trkpt lat="44.79977" lon="1.65663">
        <ele>172.69</ele>
        <time>2014-05-08T09:06:01Z</time>
      </trkpt>
      <trkpt lat="44.79967" lon="1.65655">
        <ele>172.69</ele>
        <time>2014-05-08T09:06:17Z</time>
      </trkpt>
      <trkpt lat="44.79963" lon="1.65653">
        <ele>172.69</ele>
        <time>2014-05-08T09:06:32Z</time>
      </trkpt>
      <trkpt lat="44.79953" lon="1.65654">
        <ele>171.73</ele>
        <time>2014-05-08T09:06:44Z</time>
      </trkpt>
      <trkpt lat="44.79937" lon="1.65652">
        <ele>171.73</ele>
        <time>2014-05-08T09:06:57Z</time>
      </trkpt>
      <trkpt lat="44.79932" lon="1.6565">
        <ele>171.73</ele>
        <time>2014-05-08T09:07:03Z</time>
      </trkpt>
      <trkpt lat="44.79918" lon="1.65647">
        <ele>172.21</ele>
        <time>2014-05-08T09:07:17Z</time>
      </trkpt>
      <trkpt lat="44.7991" lon="1.65639">
        <ele>172.21</ele>
        <time>2014-05-08T09:07:29Z</time>
      </trkpt>
      <trkpt lat="44.79902" lon="1.65638">
        <ele>171.73</ele>
        <time>2014-05-08T09:07:42Z</time>
      </trkpt>
      <trkpt lat="44.79899" lon="1.65639">
        <ele>171.73</ele>
        <time>2014-05-08T09:07:57Z</time>
      </trkpt>
      <trkpt lat="44.79891" lon="1.65642">
        <ele>172.69</ele>
        <time>2014-05-08T09:08:12Z</time>
      </trkpt>
      <trkpt lat="44.79886" lon="1.65639">
        <ele>172.69</ele>
        <time>2014-05-08T09:08:20Z</time>
      </trkpt>
      <trkpt lat="44.79876" lon="1.65626">
        <ele>171.25</ele>
        <time>2014-05-08T09:08:33Z</time>
      </trkpt>
      <trkpt lat="44.79869" lon="1.65609">
        <ele>171.73</ele>
        <time>2014-05-08T09:08:48Z</time>
      </trkpt>
      <trkpt lat="44.79869" lon="1.65598">
        <ele>172.21</ele>
        <time>2014-05-08T09:09:01Z</time>
      </trkpt>
      <trkpt lat="44.79864" lon="1.65585">
        <ele>175.1</ele>
        <time>2014-05-08T09:09:15Z</time>
      </trkpt>
      <trkpt lat="44.79861" lon="1.65586">
        <ele>176.54</ele>
        <time>2014-05-08T09:09:29Z</time>
      </trkpt>
      <trkpt lat="44.79864" lon="1.6558">
        <ele>174.62</ele>
        <time>2014-05-08T09:09:45Z</time>
      </trkpt>
      <trkpt lat="44.79865" lon="1.65578">
        <ele>173.66</ele>
        <time>2014-05-08T09:10:03Z</time>
      </trkpt>
      <trkpt lat="44.7987" lon="1.65576">
        <ele>171.25</ele>
        <time>2014-05-08T09:10:19Z</time>
      </trkpt>
      <trkpt lat="44.79874" lon="1.65555">
        <ele>170.29</ele>
        <time>2014-05-08T09:10:33Z</time>
      </trkpt>
      <trkpt lat="44.7988" lon="1.65524">
        <ele>170.29</ele>
        <time>2014-05-08T09:10:47Z</time>
      </trkpt>
      <trkpt lat="44.79879" lon="1.65509">
        <ele>170.29</ele>
        <time>2014-05-08T09:10:59Z</time>
      </trkpt>
      <trkpt lat="44.79876" lon="1.65495">
        <ele>169.81</ele>
        <time>2014-05-08T09:11:12Z</time>
      </trkpt>
      <trkpt lat="44.79876" lon="1.65488">
        <ele>172.21</ele>
        <time>2014-05-08T09:11:30Z</time>
      </trkpt>
      <trkpt lat="44.7987" lon="1.65474">
        <ele>173.66</ele>
        <time>2014-05-08T09:11:44Z</time>
      </trkpt>
      <trkpt lat="44.79869" lon="1.65463">
        <ele>175.1</ele>
        <time>2014-05-08T09:12:00Z</time>
      </trkpt>
      <trkpt lat="44.79867" lon="1.65456">
        <ele>178.46</ele>
        <time>2014-05-08T09:12:14Z</time>
      </trkpt>
      <trkpt lat="44.79866" lon="1.6545">
        <ele>178.94</ele>
        <time>2014-05-08T09:12:20Z</time>
      </trkpt>
      <trkpt lat="44.79862" lon="1.6543">
        <ele>179.42</ele>
        <time>2014-05-08T09:12:36Z</time>
      </trkpt>
      <trkpt lat="44.79865" lon="1.65414">
        <ele>178.94</ele>
        <time>2014-05-08T09:12:46Z</time>
      </trkpt>
      <trkpt lat="44.79869" lon="1.65399">
        <ele>177.5</ele>
        <time>2014-05-08T09:13:00Z</time>
      </trkpt>
      <trkpt lat="44.79869" lon="1.65392">
        <ele>176.06</ele>
        <time>2014-05-08T09:13:08Z</time>
      </trkpt>
      <trkpt lat="44.79869" lon="1.65376">
        <ele>175.1</ele>
        <time>2014-05-08T09:13:22Z</time>
      </trkpt>
      <trkpt lat="44.79868" lon="1.65362">
        <ele>175.1</ele>
        <time>2014-05-08T09:13:35Z</time>
      </trkpt>
      <trkpt lat="44.79869" lon="1.65352">
        <ele>174.14</ele>
        <time>2014-05-08T09:13:49Z</time>
      </trkpt>
      <trkpt lat="44.79873" lon="1.65334">
        <ele>172.69</ele>
        <time>2014-05-08T09:14:06Z</time>
      </trkpt>
      <trkpt lat="44.79873" lon="1.65333">
        <ele>172.21</ele>
        <time>2014-05-08T09:14:22Z</time>
      </trkpt>
      <trkpt lat="44.79877" lon="1.65322">
        <ele>170.29</ele>
        <time>2014-05-08T09:14:40Z</time>
      </trkpt>
      <trkpt lat="44.79882" lon="1.65306">
        <ele>168.85</ele>
        <time>2014-05-08T09:14:53Z</time>
      </trkpt>
      <trkpt lat="44.79884" lon="1.65302">
        <ele>168.37</ele>
        <time>2014-05-08T09:14:58Z</time>
      </trkpt>
      <trkpt lat="44.7989" lon="1.65288">
        <ele>168.37</ele>
        <time>2014-05-08T09:15:11Z</time>
      </trkpt>
      <trkpt lat="44.79893" lon="1.65284">
        <ele>168.37</ele>
        <time>2014-05-08T09:15:15Z</time>
      </trkpt>
      <trkpt lat="44.79903" lon="1.6527">
        <ele>167.89</ele>
        <time>2014-05-08T09:15:29Z</time>
      </trkpt>
      <trkpt lat="44.79912" lon="1.65263">
        <ele>167.41</ele>
        <time>2014-05-08T09:15:45Z</time>
      </trkpt>
      <trkpt lat="44.79919" lon="1.65259">
        <ele>166.93</ele>
        <time>2014-05-08T09:15:56Z</time>
      </trkpt>
      <trkpt lat="44.7993" lon="1.65258">
        <ele>166.93</ele>
        <time>2014-05-08T09:16:10Z</time>
      </trkpt>
      <trkpt lat="44.79943" lon="1.65256">
        <ele>166.93</ele>
        <time>2014-05-08T09:16:26Z</time>
      </trkpt>
      <trkpt lat="44.79947" lon="1.65258">
        <ele>166.45</ele>
        <time>2014-05-08T09:16:43Z</time>
      </trkpt>
      <trkpt lat="44.79961" lon="1.65244">
        <ele>166.93</ele>
        <time>2014-05-08T09:16:59Z</time>
      </trkpt>
      <trkpt lat="44.79971" lon="1.65228">
        <ele>166.45</ele>
        <time>2014-05-08T09:17:16Z</time>
      </trkpt>
      <trkpt lat="44.79975" lon="1.65212">
        <ele>165.96</ele>
        <time>2014-05-08T09:17:30Z</time>
      </trkpt>
      <trkpt lat="44.79976" lon="1.65208">
        <ele>165.48</ele>
        <time>2014-05-08T09:17:34Z</time>
      </trkpt>
      <trkpt lat="44.79978" lon="1.65204">
        <ele>165.48</ele>
        <time>2014-05-08T09:17:37Z</time>
      </trkpt>
      <trkpt lat="44.79978" lon="1.65194">
        <ele>165.96</ele>
        <time>2014-05-08T09:17:47Z</time>
      </trkpt>
      <trkpt lat="44.79982" lon="1.65181">
        <ele>166.45</ele>
        <time>2014-05-08T09:17:59Z</time>
      </trkpt>
      <trkpt lat="44.79982" lon="1.65176">
        <ele>165.96</ele>
        <time>2014-05-08T09:18:02Z</time>
      </trkpt>
      <trkpt lat="44.79983" lon="1.6516">
        <ele>166.45</ele>
        <time>2014-05-08T09:18:17Z</time>
      </trkpt>
      <trkpt lat="44.79986" lon="1.65145">
        <ele>165.96</ele>
        <time>2014-05-08T09:18:31Z</time>
      </trkpt>
      <trkpt lat="44.79985" lon="1.65141">
        <ele>165.96</ele>
        <time>2014-05-08T09:18:35Z</time>
      </trkpt>
      <trkpt lat="44.79979" lon="1.65129">
        <ele>165.48</ele>
        <time>2014-05-08T09:18:50Z</time>
      </trkpt>
      <trkpt lat="44.79973" lon="1.65115">
        <ele>165</ele>
        <time>2014-05-08T09:19:06Z</time>
      </trkpt>
      <trkpt lat="44.79965" lon="1.65096">
        <ele>165</ele>
        <time>2014-05-08T09:19:23Z</time>
      </trkpt>
      <trkpt lat="44.79955" lon="1.65082">
        <ele>165.48</ele>
        <time>2014-05-08T09:19:37Z</time>
      </trkpt>
      <trkpt lat="44.79951" lon="1.65073">
        <ele>165.48</ele>
        <time>2014-05-08T09:19:50Z</time>
      </trkpt>
      <trkpt lat="44.79947" lon="1.65065">
        <ele>165.48</ele>
        <time>2014-05-08T09:20:01Z</time>
      </trkpt>
      <trkpt lat="44.79947" lon="1.65062">
        <ele>165.48</ele>
        <time>2014-05-08T09:20:03Z</time>
      </trkpt>
      <trkpt lat="44.7995" lon="1.65043">
        <ele>164.52</ele>
        <time>2014-05-08T09:20:18Z</time>
      </trkpt>
      <trkpt lat="44.79952" lon="1.65038">
        <ele>164.04</ele>
        <time>2014-05-08T09:20:33Z</time>
      </trkpt>
      <trkpt lat="44.79954" lon="1.65036">
        <ele>164.52</ele>
        <time>2014-05-08T09:20:45Z</time>
      </trkpt>
      <trkpt lat="44.79959" lon="1.65035">
        <ele>164.04</ele>
        <time>2014-05-08T09:21:00Z</time>
      </trkpt>
      <trkpt lat="44.79959" lon="1.65028">
        <ele>163.56</ele>
        <time>2014-05-08T09:21:12Z</time>
      </trkpt>
      <trkpt lat="44.79956" lon="1.65019">
        <ele>163.56</ele>
        <time>2014-05-08T09:21:28Z</time>
      </trkpt>
      <trkpt lat="44.79952" lon="1.65004">
        <ele>163.08</ele>
        <time>2014-05-08T09:21:41Z</time>
      </trkpt>
      <trkpt lat="44.7995" lon="1.64989">
        <ele>162.6</ele>
        <time>2014-05-08T09:21:55Z</time>
      </trkpt>
      <trkpt lat="44.79949" lon="1.64976">
        <ele>162.6</ele>
        <time>2014-05-08T09:22:07Z</time>
      </trkpt>
      <trkpt lat="44.79945" lon="1.64959">
        <ele>161.16</ele>
        <time>2014-05-08T09:22:24Z</time>
      </trkpt>
      <trkpt lat="44.79945" lon="1.64943">
        <ele>162.6</ele>
        <time>2014-05-08T09:22:37Z</time>
      </trkpt>
      <trkpt lat="44.79948" lon="1.64922">
        <ele>162.6</ele>
        <time>2014-05-08T09:22:53Z</time>
      </trkpt>
      <trkpt lat="44.79953" lon="1.64906">
        <ele>162.12</ele>
        <time>2014-05-08T09:23:08Z</time>
      </trkpt>
      <trkpt lat="44.7996" lon="1.64893">
        <ele>164.04</ele>
        <time>2014-05-08T09:23:23Z</time>
      </trkpt>
      <trkpt lat="44.79964" lon="1.64886">
        <ele>163.08</ele>
        <time>2014-05-08T09:23:38Z</time>
      </trkpt>
      <trkpt lat="44.79969" lon="1.64874">
        <ele>163.08</ele>
        <time>2014-05-08T09:23:52Z</time>
      </trkpt>
      <trkpt lat="44.79974" lon="1.64862">
        <ele>163.08</ele>
        <time>2014-05-08T09:24:07Z</time>
      </trkpt>
      <trkpt lat="44.79976" lon="1.64855">
        <ele>164.04</ele>
        <time>2014-05-08T09:24:17Z</time>
      </trkpt>
      <trkpt lat="44.79977" lon="1.64849">
        <ele>164.04</ele>
        <time>2014-05-08T09:24:28Z</time>
      </trkpt>
      <trkpt lat="44.79977" lon="1.64831">
        <ele>163.56</ele>
        <time>2014-05-08T09:24:43Z</time>
      </trkpt>
      <trkpt lat="44.79975" lon="1.64818">
        <ele>163.08</ele>
        <time>2014-05-08T09:24:56Z</time>
      </trkpt>
      <trkpt lat="44.79975" lon="1.64803">
        <ele>162.12</ele>
        <time>2014-05-08T09:25:07Z</time>
      </trkpt>
      <trkpt lat="44.79976" lon="1.6479">
        <ele>162.6</ele>
        <time>2014-05-08T09:25:20Z</time>
      </trkpt>
      <trkpt lat="44.79977" lon="1.64786">
        <ele>162.12</ele>
        <time>2014-05-08T09:25:31Z</time>
      </trkpt>
      <trkpt lat="44.79977" lon="1.64774">
        <ele>162.12</ele>
        <time>2014-05-08T09:25:39Z</time>
      </trkpt>
      <trkpt lat="44.79974" lon="1.64753">
        <ele>162.12</ele>
        <time>2014-05-08T09:25:53Z</time>
      </trkpt>
      <trkpt lat="44.79973" lon="1.64751">
        <ele>162.12</ele>
        <time>2014-05-08T09:26:05Z</time>
      </trkpt>
      <trkpt lat="44.79974" lon="1.64746">
        <ele>161.64</ele>
        <time>2014-05-08T09:26:17Z</time>
      </trkpt>
      <trkpt lat="44.79972" lon="1.6474">
        <ele>161.16</ele>
        <time>2014-05-08T09:26:21Z</time>
      </trkpt>
      <trkpt lat="44.7997" lon="1.64734">
        <ele>160.68</ele>
        <time>2014-05-08T09:26:34Z</time>
      </trkpt>
      <trkpt lat="44.7997" lon="1.64734">
        <ele>160.2</ele>
        <time>2014-05-08T09:26:59Z</time>
      </trkpt>
      <trkpt lat="44.7997" lon="1.64734">
        <ele>160.68</ele>
        <time>2014-05-08T09:27:02Z</time>
      </trkpt>
      <trkpt lat="44.7997" lon="1.64729">
        <ele>161.16</ele>
        <time>2014-05-08T09:27:09Z</time>
      </trkpt>
      <trkpt lat="44.79969" lon="1.64724">
        <ele>161.16</ele>
        <time>2014-05-08T09:27:15Z</time>
      </trkpt>
      <trkpt lat="44.79963" lon="1.64705">
        <ele>161.64</ele>
        <time>2014-05-08T09:27:28Z</time>
      </trkpt>
      <trkpt lat="44.79957" lon="1.64692">
        <ele>162.6</ele>
        <time>2014-05-08T09:27:39Z</time>
      </trkpt>
      <trkpt lat="44.79953" lon="1.64681">
        <ele>163.56</ele>
        <time>2014-05-08T09:27:46Z</time>
      </trkpt>
      <trkpt lat="44.79947" lon="1.64658">
        <ele>165</ele>
        <time>2014-05-08T09:28:00Z</time>
      </trkpt>
      <trkpt lat="44.79943" lon="1.64633">
        <ele>164.04</ele>
        <time>2014-05-08T09:28:15Z</time>
      </trkpt>
      <trkpt lat="44.79943" lon="1.6462">
        <ele>163.08</ele>
        <time>2014-05-08T09:28:23Z</time>
      </trkpt>
      <trkpt lat="44.79945" lon="1.64593">
        <ele>162.12</ele>
        <time>2014-05-08T09:28:38Z</time>
      </trkpt>
      <trkpt lat="44.79942" lon="1.64575">
        <ele>161.16</ele>
        <time>2014-05-08T09:28:50Z</time>
      </trkpt>
      <trkpt lat="44.79942" lon="1.64573">
        <ele>161.16</ele>
        <time>2014-05-08T09:28:51Z</time>
      </trkpt>
      <trkpt lat="44.79942" lon="1.64571">
        <ele>161.16</ele>
        <time>2014-05-08T09:28:53Z</time>
      </trkpt>
      <trkpt lat="44.7994" lon="1.64547">
        <ele>161.16</ele>
        <time>2014-05-08T09:29:07Z</time>
      </trkpt>
      <trkpt lat="44.79937" lon="1.64521">
        <ele>161.16</ele>
        <time>2014-05-08T09:29:21Z</time>
      </trkpt>
      <trkpt lat="44.79934" lon="1.645">
        <ele>160.2</ele>
        <time>2014-05-08T09:29:34Z</time>
      </trkpt>
      <trkpt lat="44.79931" lon="1.64481">
        <ele>159.72</ele>
        <time>2014-05-08T09:29:44Z</time>
      </trkpt>
      <trkpt lat="44.7993" lon="1.64475">
        <ele>160.2</ele>
        <time>2014-05-08T09:29:48Z</time>
      </trkpt>
      <trkpt lat="44.79926" lon="1.64464">
        <ele>160.68</ele>
        <time>2014-05-08T09:29:56Z</time>
      </trkpt>
      <trkpt lat="44.79925" lon="1.64459">
        <ele>160.2</ele>
        <time>2014-05-08T09:29:59Z</time>
      </trkpt>
      <trkpt lat="44.79921" lon="1.64433">
        <ele>159.72</ele>
        <time>2014-05-08T09:30:15Z</time>
      </trkpt>
      <trkpt lat="44.79918" lon="1.64404">
        <ele>158.75</ele>
        <time>2014-05-08T09:30:29Z</time>
      </trkpt>
      <trkpt lat="44.79921" lon="1.64377">
        <ele>160.68</ele>
        <time>2014-05-08T09:30:44Z</time>
      </trkpt>
      <trkpt lat="44.79922" lon="1.64375">
        <ele>160.68</ele>
        <time>2014-05-08T09:30:46Z</time>
      </trkpt>
      <trkpt lat="44.79922" lon="1.6437">
        <ele>161.64</ele>
        <time>2014-05-08T09:30:48Z</time>
      </trkpt>
      <trkpt lat="44.79924" lon="1.64362">
        <ele>161.64</ele>
        <time>2014-05-08T09:30:53Z</time>
      </trkpt>
      <trkpt lat="44.79925" lon="1.64358">
        <ele>161.16</ele>
        <time>2014-05-08T09:30:56Z</time>
      </trkpt>
      <trkpt lat="44.79928" lon="1.6434">
        <ele>163.08</ele>
        <time>2014-05-08T09:31:10Z</time>
      </trkpt>
      <trkpt lat="44.79928" lon="1.64331">
        <ele>162.6</ele>
        <time>2014-05-08T09:31:22Z</time>
      </trkpt>
      <trkpt lat="44.79926" lon="1.64326">
        <ele>162.12</ele>
        <time>2014-05-08T09:31:36Z</time>
      </trkpt>
      <trkpt lat="44.79926" lon="1.64324">
        <ele>162.6</ele>
        <time>2014-05-08T09:31:52Z</time>
      </trkpt>
      <trkpt lat="44.79923" lon="1.64312">
        <ele>162.12</ele>
        <time>2014-05-08T09:32:08Z</time>
      </trkpt>
      <trkpt lat="44.7992" lon="1.64297">
        <ele>161.16</ele>
        <time>2014-05-08T09:32:20Z</time>
      </trkpt>
      <trkpt lat="44.79919" lon="1.64292">
        <ele>160.2</ele>
        <time>2014-05-08T09:32:24Z</time>
      </trkpt>
      <trkpt lat="44.79916" lon="1.6428">
        <ele>159.72</ele>
        <time>2014-05-08T09:32:39Z</time>
      </trkpt>
      <trkpt lat="44.79911" lon="1.64263">
        <ele>158.27</ele>
        <time>2014-05-08T09:32:52Z</time>
      </trkpt>
      <trkpt lat="44.79907" lon="1.64253">
        <ele>157.79</ele>
        <time>2014-05-08T09:33:00Z</time>
      </trkpt>
      <trkpt lat="44.79902" lon="1.6424">
        <ele>156.83</ele>
        <time>2014-05-08T09:33:12Z</time>
      </trkpt>
      <trkpt lat="44.79898" lon="1.64224">
        <ele>158.27</ele>
        <time>2014-05-08T09:33:25Z</time>
      </trkpt>
      <trkpt lat="44.79892" lon="1.64211">
        <ele>158.27</ele>
        <time>2014-05-08T09:33:36Z</time>
      </trkpt>
      <trkpt lat="44.79884" lon="1.64199">
        <ele>159.24</ele>
        <time>2014-05-08T09:33:48Z</time>
      </trkpt>
      <trkpt lat="44.79874" lon="1.64195">
        <ele>160.68</ele>
        <time>2014-05-08T09:34:00Z</time>
      </trkpt>
      <trkpt lat="44.79874" lon="1.64195">
        <ele>160.68</ele>
        <time>2014-05-08T09:34:01Z</time>
      </trkpt>
      <trkpt lat="44.79867" lon="1.64192">
        <ele>161.16</ele>
        <time>2014-05-08T09:34:07Z</time>
      </trkpt>
      <trkpt lat="44.79866" lon="1.64192">
        <ele>154.91</ele>
        <time>2014-05-08T09:34:08Z</time>
      </trkpt>
      <trkpt lat="44.79865" lon="1.64192">
        <ele>161.16</ele>
        <time>2014-05-08T09:34:09Z</time>
      </trkpt>
      <trkpt lat="44.79852" lon="1.64194">
        <ele>160.2</ele>
        <time>2014-05-08T09:34:22Z</time>
      </trkpt>
      <trkpt lat="44.79842" lon="1.64203">
        <ele>161.64</ele>
        <time>2014-05-08T09:34:36Z</time>
      </trkpt>
      <trkpt lat="44.79831" lon="1.64213">
        <ele>163.56</ele>
        <time>2014-05-08T09:34:50Z</time>
      </trkpt>
      <trkpt lat="44.79828" lon="1.64216">
        <ele>164.52</ele>
        <time>2014-05-08T09:34:54Z</time>
      </trkpt>
      <trkpt lat="44.7982" lon="1.64222">
        <ele>164.04</ele>
        <time>2014-05-08T09:35:04Z</time>
      </trkpt>
      <trkpt lat="44.79805" lon="1.64229">
        <ele>164.04</ele>
        <time>2014-05-08T09:35:20Z</time>
      </trkpt>
      <trkpt lat="44.7979" lon="1.6423">
        <ele>162.12</ele>
        <time>2014-05-08T09:35:35Z</time>
      </trkpt>
      <trkpt lat="44.79775" lon="1.64232">
        <ele>161.64</ele>
        <time>2014-05-08T09:35:49Z</time>
      </trkpt>
      <trkpt lat="44.79759" lon="1.64231">
        <ele>161.16</ele>
        <time>2014-05-08T09:36:04Z</time>
      </trkpt>
      <trkpt lat="44.79747" lon="1.64233">
        <ele>161.16</ele>
        <time>2014-05-08T09:36:18Z</time>
      </trkpt>
      <trkpt lat="44.79738" lon="1.64233">
        <ele>161.64</ele>
        <time>2014-05-08T09:36:26Z</time>
      </trkpt>
      <trkpt lat="44.79728" lon="1.64233">
        <ele>162.12</ele>
        <time>2014-05-08T09:36:36Z</time>
      </trkpt>
      <trkpt lat="44.79717" lon="1.64233">
        <ele>163.08</ele>
        <time>2014-05-08T09:36:49Z</time>
      </trkpt>
      <trkpt lat="44.79704" lon="1.64231">
        <ele>164.52</ele>
        <time>2014-05-08T09:37:03Z</time>
      </trkpt>
      <trkpt lat="44.79702" lon="1.64232">
        <ele>164.52</ele>
        <time>2014-05-08T09:37:05Z</time>
      </trkpt>
      <trkpt lat="44.79694" lon="1.64236">
        <ele>164.52</ele>
        <time>2014-05-08T09:37:12Z</time>
      </trkpt>
      <trkpt lat="44.79684" lon="1.6424">
        <ele>164.52</ele>
        <time>2014-05-08T09:37:22Z</time>
      </trkpt>
      <trkpt lat="44.79672" lon="1.64248">
        <ele>163.56</ele>
        <time>2014-05-08T09:37:34Z</time>
      </trkpt>
      <trkpt lat="44.79669" lon="1.6425">
        <ele>163.08</ele>
        <time>2014-05-08T09:37:38Z</time>
      </trkpt>
      <trkpt lat="44.79664" lon="1.64256">
        <ele>162.12</ele>
        <time>2014-05-08T09:37:44Z</time>
      </trkpt>
      <trkpt lat="44.7966" lon="1.64259">
        <ele>161.64</ele>
        <time>2014-05-08T09:37:49Z</time>
      </trkpt>
      <trkpt lat="44.79656" lon="1.64261">
        <ele>160.68</ele>
        <time>2014-05-08T09:37:52Z</time>
      </trkpt>
      <trkpt lat="44.79645" lon="1.64271">
        <ele>159.72</ele>
        <time>2014-05-08T09:38:05Z</time>
      </trkpt>
      <trkpt lat="44.79643" lon="1.64272">
        <ele>159.24</ele>
        <time>2014-05-08T09:38:08Z</time>
      </trkpt>
      <trkpt lat="44.79637" lon="1.64274">
        <ele>158.75</ele>
        <time>2014-05-08T09:38:13Z</time>
      </trkpt>
      <trkpt lat="44.79633" lon="1.64275">
        <ele>158.27</ele>
        <time>2014-05-08T09:38:17Z</time>
      </trkpt>
      <trkpt lat="44.79622" lon="1.64283">
        <ele>157.79</ele>
        <time>2014-05-08T09:38:28Z</time>
      </trkpt>
      <trkpt lat="44.79611" lon="1.64287">
        <ele>157.31</ele>
        <time>2014-05-08T09:38:38Z</time>
      </trkpt>
      <trkpt lat="44.79605" lon="1.6429">
        <ele>156.83</ele>
        <time>2014-05-08T09:38:44Z</time>
      </trkpt>
      <trkpt lat="44.79601" lon="1.6429">
        <ele>156.83</ele>
        <time>2014-05-08T09:38:47Z</time>
      </trkpt>
      <trkpt lat="44.79598" lon="1.6429">
        <ele>156.35</ele>
        <time>2014-05-08T09:38:50Z</time>
      </trkpt>
      <trkpt lat="44.79594" lon="1.64289">
        <ele>156.83</ele>
        <time>2014-05-08T09:38:53Z</time>
      </trkpt>
      <trkpt lat="44.79578" lon="1.64287">
        <ele>156.35</ele>
        <time>2014-05-08T09:39:08Z</time>
      </trkpt>
      <trkpt lat="44.79566" lon="1.64277">
        <ele>156.35</ele>
        <time>2014-05-08T09:39:21Z</time>
      </trkpt>
      <trkpt lat="44.79564" lon="1.64274">
        <ele>155.39</ele>
        <time>2014-05-08T09:39:24Z</time>
      </trkpt>
      <trkpt lat="44.79558" lon="1.64268">
        <ele>155.87</ele>
        <time>2014-05-08T09:39:30Z</time>
      </trkpt>
      <trkpt lat="44.79551" lon="1.64256">
        <ele>155.39</ele>
        <time>2014-05-08T09:39:40Z</time>
      </trkpt>
      <trkpt lat="44.79545" lon="1.64241">
        <ele>154.43</ele>
        <time>2014-05-08T09:39:50Z</time>
      </trkpt>
      <trkpt lat="44.79534" lon="1.64224">
        <ele>153.95</ele>
        <time>2014-05-08T09:40:05Z</time>
      </trkpt>
      <trkpt lat="44.79523" lon="1.64211">
        <ele>153.47</ele>
        <time>2014-05-08T09:40:19Z</time>
      </trkpt>
      <trkpt lat="44.79518" lon="1.64204">
        <ele>152.51</ele>
        <time>2014-05-08T09:40:25Z</time>
      </trkpt>
      <trkpt lat="44.79513" lon="1.64195">
        <ele>152.03</ele>
        <time>2014-05-08T09:40:32Z</time>
      </trkpt>
      <trkpt lat="44.7951" lon="1.64192">
        <ele>151.54</ele>
        <time>2014-05-08T09:40:35Z</time>
      </trkpt>
      <trkpt lat="44.79506" lon="1.64184">
        <ele>151.54</ele>
        <time>2014-05-08T09:40:42Z</time>
      </trkpt>
      <trkpt lat="44.79497" lon="1.64169">
        <ele>150.58</ele>
        <time>2014-05-08T09:40:57Z</time>
      </trkpt>
      <trkpt lat="44.79491" lon="1.64152">
        <ele>150.1</ele>
        <time>2014-05-08T09:41:09Z</time>
      </trkpt>
      <trkpt lat="44.79489" lon="1.64145">
        <ele>149.62</ele>
        <time>2014-05-08T09:41:13Z</time>
      </trkpt>
      <trkpt lat="44.79483" lon="1.64125">
        <ele>149.62</ele>
        <time>2014-05-08T09:41:27Z</time>
      </trkpt>
      <trkpt lat="44.7948" lon="1.64107">
        <ele>150.1</ele>
        <time>2014-05-08T09:41:41Z</time>
      </trkpt>
      <trkpt lat="44.79478" lon="1.64091">
        <ele>150.58</ele>
        <time>2014-05-08T09:41:51Z</time>
      </trkpt>
      <trkpt lat="44.79474" lon="1.64073">
        <ele>151.06</ele>
        <time>2014-05-08T09:42:04Z</time>
      </trkpt>
      <trkpt lat="44.79473" lon="1.64069">
        <ele>150.1</ele>
        <time>2014-05-08T09:42:07Z</time>
      </trkpt>
      <trkpt lat="44.79471" lon="1.64058">
        <ele>150.1</ele>
        <time>2014-05-08T09:42:13Z</time>
      </trkpt>
      <trkpt lat="44.79469" lon="1.64049">
        <ele>150.1</ele>
        <time>2014-05-08T09:42:18Z</time>
      </trkpt>
      <trkpt lat="44.79471" lon="1.64024">
        <ele>149.14</ele>
        <time>2014-05-08T09:42:32Z</time>
      </trkpt>
      <trkpt lat="44.79472" lon="1.64004">
        <ele>149.14</ele>
        <time>2014-05-08T09:42:46Z</time>
      </trkpt>
      <trkpt lat="44.79473" lon="1.63998">
        <ele>149.62</ele>
        <time>2014-05-08T09:42:50Z</time>
      </trkpt>
      <trkpt lat="44.79475" lon="1.63979">
        <ele>150.1</ele>
        <time>2014-05-08T09:43:04Z</time>
      </trkpt>
      <trkpt lat="44.79487" lon="1.63965">
        <ele>150.1</ele>
        <time>2014-05-08T09:43:18Z</time>
      </trkpt>
      <trkpt lat="44.7949" lon="1.63959">
        <ele>150.58</ele>
        <time>2014-05-08T09:43:23Z</time>
      </trkpt>
      <trkpt lat="44.79497" lon="1.6394">
        <ele>151.06</ele>
        <time>2014-05-08T09:43:38Z</time>
      </trkpt>
      <trkpt lat="44.795" lon="1.63932">
        <ele>151.06</ele>
        <time>2014-05-08T09:43:54Z</time>
      </trkpt>
      <trkpt lat="44.79502" lon="1.63925">
        <ele>151.06</ele>
        <time>2014-05-08T09:43:58Z</time>
      </trkpt>
      <trkpt lat="44.79505" lon="1.63919">
        <ele>151.54</ele>
        <time>2014-05-08T09:44:02Z</time>
      </trkpt>
      <trkpt lat="44.79507" lon="1.63912">
        <ele>150.58</ele>
        <time>2014-05-08T09:44:07Z</time>
      </trkpt>
      <trkpt lat="44.79513" lon="1.63892">
        <ele>151.06</ele>
        <time>2014-05-08T09:44:20Z</time>
      </trkpt>
      <trkpt lat="44.79515" lon="1.63881">
        <ele>150.58</ele>
        <time>2014-05-08T09:44:33Z</time>
      </trkpt>
      <trkpt lat="44.79515" lon="1.6388">
        <ele>151.06</ele>
        <time>2014-05-08T09:44:40Z</time>
      </trkpt>
      <trkpt lat="44.79516" lon="1.63877">
        <ele>151.54</ele>
        <time>2014-05-08T09:44:42Z</time>
      </trkpt>
      <trkpt lat="44.79522" lon="1.63856">
        <ele>152.51</ele>
        <time>2014-05-08T09:44:55Z</time>
      </trkpt>
      <trkpt lat="44.79529" lon="1.63832">
        <ele>152.03</ele>
        <time>2014-05-08T09:45:08Z</time>
      </trkpt>
      <trkpt lat="44.79535" lon="1.6381">
        <ele>153.47</ele>
        <time>2014-05-08T09:45:21Z</time>
      </trkpt>
      <trkpt lat="44.79535" lon="1.63808">
        <ele>153.47</ele>
        <time>2014-05-08T09:45:24Z</time>
      </trkpt>
      <trkpt lat="44.79537" lon="1.63803">
        <ele>153.47</ele>
        <time>2014-05-08T09:45:27Z</time>
      </trkpt>
      <trkpt lat="44.7954" lon="1.63787">
        <ele>153.95</ele>
        <time>2014-05-08T09:45:37Z</time>
      </trkpt>
      <trkpt lat="44.79542" lon="1.63784">
        <ele>153.47</ele>
        <time>2014-05-08T09:45:39Z</time>
      </trkpt>
      <trkpt lat="44.79546" lon="1.63771">
        <ele>153.47</ele>
        <time>2014-05-08T09:45:49Z</time>
      </trkpt>
      <trkpt lat="44.79547" lon="1.63761">
        <ele>153.95</ele>
        <time>2014-05-08T09:45:55Z</time>
      </trkpt>
      <trkpt lat="44.79554" lon="1.63735">
        <ele>152.99</ele>
        <time>2014-05-08T09:46:11Z</time>
      </trkpt>
      <trkpt lat="44.7956" lon="1.63716">
        <ele>152.03</ele>
        <time>2014-05-08T09:46:24Z</time>
      </trkpt>
      <trkpt lat="44.79566" lon="1.63695">
        <ele>150.58</ele>
        <time>2014-05-08T09:46:38Z</time>
      </trkpt>
      <trkpt lat="44.79569" lon="1.63685">
        <ele>150.58</ele>
        <time>2014-05-08T09:46:45Z</time>
      </trkpt>
      <trkpt lat="44.79575" lon="1.6367">
        <ele>150.1</ele>
        <time>2014-05-08T09:46:58Z</time>
      </trkpt>
      <trkpt lat="44.79576" lon="1.63668">
        <ele>150.1</ele>
        <time>2014-05-08T09:47:00Z</time>
      </trkpt>
      <trkpt lat="44.79578" lon="1.63664">
        <ele>149.14</ele>
        <time>2014-05-08T09:47:02Z</time>
      </trkpt>
      <trkpt lat="44.79582" lon="1.63658">
        <ele>149.62</ele>
        <time>2014-05-08T09:47:08Z</time>
      </trkpt>
      <trkpt lat="44.7959" lon="1.63646">
        <ele>150.1</ele>
        <time>2014-05-08T09:47:20Z</time>
      </trkpt>
      <trkpt lat="44.79596" lon="1.63637">
        <ele>149.14</ele>
        <time>2014-05-08T09:47:27Z</time>
      </trkpt>
      <trkpt lat="44.79608" lon="1.63623">
        <ele>149.62</ele>
        <time>2014-05-08T09:47:41Z</time>
      </trkpt>
      <trkpt lat="44.7961" lon="1.63619">
        <ele>149.14</ele>
        <time>2014-05-08T09:47:44Z</time>
      </trkpt>
      <trkpt lat="44.79617" lon="1.63614">
        <ele>148.18</ele>
        <time>2014-05-08T09:47:50Z</time>
      </trkpt>
      <trkpt lat="44.79621" lon="1.6361">
        <ele>148.18</ele>
        <time>2014-05-08T09:47:55Z</time>
      </trkpt>
      <trkpt lat="44.79627" lon="1.63606">
        <ele>148.18</ele>
        <time>2014-05-08T09:48:01Z</time>
      </trkpt>
      <trkpt lat="44.79642" lon="1.63598">
        <ele>147.7</ele>
        <time>2014-05-08T09:48:17Z</time>
      </trkpt>
      <trkpt lat="44.79656" lon="1.63592">
        <ele>147.22</ele>
        <time>2014-05-08T09:48:31Z</time>
      </trkpt>
      <trkpt lat="44.79664" lon="1.6359">
        <ele>147.7</ele>
        <time>2014-05-08T09:48:40Z</time>
      </trkpt>
      <trkpt lat="44.79682" lon="1.63587">
        <ele>147.22</ele>
        <time>2014-05-08T09:48:54Z</time>
      </trkpt>
      <trkpt lat="44.79699" lon="1.63586">
        <ele>148.18</ele>
        <time>2014-05-08T09:49:09Z</time>
      </trkpt>
      <trkpt lat="44.79712" lon="1.63584">
        <ele>148.18</ele>
        <time>2014-05-08T09:49:20Z</time>
      </trkpt>
      <trkpt lat="44.79717" lon="1.63586">
        <ele>147.7</ele>
        <time>2014-05-08T09:49:25Z</time>
      </trkpt>
      <trkpt lat="44.79726" lon="1.63585">
        <ele>146.74</ele>
        <time>2014-05-08T09:49:38Z</time>
      </trkpt>
      <trkpt lat="44.79727" lon="1.63583">
        <ele>146.26</ele>
        <time>2014-05-08T09:49:56Z</time>
      </trkpt>
      <trkpt lat="44.79728" lon="1.6358">
        <ele>147.22</ele>
        <time>2014-05-08T09:50:25Z</time>
      </trkpt>
      <trkpt lat="44.79732" lon="1.63581">
        <ele>148.18</ele>
        <time>2014-05-08T09:50:39Z</time>
      </trkpt>
      <trkpt lat="44.79734" lon="1.63587">
        <ele>149.14</ele>
        <time>2014-05-08T09:50:53Z</time>
      </trkpt>
      <trkpt lat="44.79736" lon="1.63591">
        <ele>148.18</ele>
        <time>2014-05-08T09:51:08Z</time>
      </trkpt>
      <trkpt lat="44.79736" lon="1.63591">
        <ele>149.14</ele>
        <time>2014-05-08T09:51:31Z</time>
      </trkpt>
      <trkpt lat="44.79735" lon="1.63591">
        <ele>148.66</ele>
        <time>2014-05-08T09:51:48Z</time>
      </trkpt>
      <trkpt lat="44.79735" lon="1.63591">
        <ele>148.66</ele>
        <time>2014-05-08T09:52:22Z</time>
      </trkpt>
      <trkpt lat="44.79735" lon="1.63591">
        <ele>148.66</ele>
        <time>2014-05-08T09:53:01Z</time>
      </trkpt>
      <trkpt lat="44.79734" lon="1.6359">
        <ele>149.62</ele>
        <time>2014-05-08T09:53:39Z</time>
      </trkpt>
      <trkpt lat="44.79734" lon="1.6359">
        <ele>149.62</ele>
        <time>2014-05-08T09:54:13Z</time>
      </trkpt>
      <trkpt lat="44.79734" lon="1.63591">
        <ele>149.62</ele>
        <time>2014-05-08T09:54:43Z</time>
      </trkpt>
      <trkpt lat="44.79734" lon="1.63591">
        <ele>149.62</ele>
        <time>2014-05-08T09:55:02Z</time>
      </trkpt>
      <trkpt lat="44.79735" lon="1.63592">
        <ele>150.58</ele>
        <time>2014-05-08T09:55:22Z</time>
      </trkpt>
      <trkpt lat="44.79735" lon="1.63593">
        <ele>150.58</ele>
        <time>2014-05-08T09:55:41Z</time>
      </trkpt>
      <trkpt lat="44.7974" lon="1.63597">
        <ele>150.1</ele>
        <time>2014-05-08T09:55:52Z</time>
      </trkpt>
      <trkpt lat="44.79747" lon="1.63602">
        <ele>150.58</ele>
        <time>2014-05-08T09:56:04Z</time>
      </trkpt>
      <trkpt lat="44.79754" lon="1.63607">
        <ele>151.06</ele>
        <time>2014-05-08T09:56:15Z</time>
      </trkpt>
      <trkpt lat="44.79758" lon="1.63607">
        <ele>152.03</ele>
        <time>2014-05-08T09:56:30Z</time>
      </trkpt>
      <trkpt lat="44.79771" lon="1.63612">
        <ele>152.51</ele>
        <time>2014-05-08T09:56:44Z</time>
      </trkpt>
      <trkpt lat="44.79787" lon="1.63609">
        <ele>150.58</ele>
        <time>2014-05-08T09:56:55Z</time>
      </trkpt>
      <trkpt lat="44.79802" lon="1.63606">
        <ele>149.14</ele>
        <time>2014-05-08T09:57:08Z</time>
      </trkpt>
      <trkpt lat="44.79818" lon="1.63602">
        <ele>149.14</ele>
        <time>2014-05-08T09:57:19Z</time>
      </trkpt>
      <trkpt lat="44.79833" lon="1.63598">
        <ele>149.14</ele>
        <time>2014-05-08T09:57:33Z</time>
      </trkpt>
      <trkpt lat="44.79851" lon="1.63592">
        <ele>150.1</ele>
        <time>2014-05-08T09:57:49Z</time>
      </trkpt>
      <trkpt lat="44.79861" lon="1.63585">
        <ele>150.1</ele>
        <time>2014-05-08T09:57:58Z</time>
      </trkpt>
      <trkpt lat="44.7987" lon="1.63577">
        <ele>150.1</ele>
        <time>2014-05-08T09:58:07Z</time>
      </trkpt>
      <trkpt lat="44.79874" lon="1.63575">
        <ele>150.1</ele>
        <time>2014-05-08T09:58:11Z</time>
      </trkpt>
      <trkpt lat="44.79882" lon="1.6357">
        <ele>151.06</ele>
        <time>2014-05-08T09:58:20Z</time>
      </trkpt>
      <trkpt lat="44.79894" lon="1.63558">
        <ele>152.03</ele>
        <time>2014-05-08T09:58:33Z</time>
      </trkpt>
      <trkpt lat="44.79904" lon="1.63546">
        <ele>152.51</ele>
        <time>2014-05-08T09:58:43Z</time>
      </trkpt>
      <trkpt lat="44.79909" lon="1.63532">
        <ele>152.51</ele>
        <time>2014-05-08T09:58:52Z</time>
      </trkpt>
      <trkpt lat="44.79911" lon="1.63526">
        <ele>152.51</ele>
        <time>2014-05-08T09:58:57Z</time>
      </trkpt>
      <trkpt lat="44.79915" lon="1.63515">
        <ele>152.03</ele>
        <time>2014-05-08T09:59:05Z</time>
      </trkpt>
      <trkpt lat="44.79922" lon="1.635">
        <ele>152.99</ele>
        <time>2014-05-08T09:59:19Z</time>
      </trkpt>
      <trkpt lat="44.79926" lon="1.6349">
        <ele>152.51</ele>
        <time>2014-05-08T09:59:34Z</time>
      </trkpt>
      <trkpt lat="44.79927" lon="1.63487">
        <ele>152.99</ele>
        <time>2014-05-08T09:59:52Z</time>
      </trkpt>
      <trkpt lat="44.79927" lon="1.63487">
        <ele>152.51</ele>
        <time>2014-05-08T10:00:10Z</time>
      </trkpt>
      <trkpt lat="44.79927" lon="1.63486">
        <ele>152.51</ele>
        <time>2014-05-08T10:00:34Z</time>
      </trkpt>
      <trkpt lat="44.79929" lon="1.6348">
        <ele>152.51</ele>
        <time>2014-05-08T10:00:50Z</time>
      </trkpt>
      <trkpt lat="44.79931" lon="1.63472">
        <ele>152.51</ele>
        <time>2014-05-08T10:01:03Z</time>
      </trkpt>
      <trkpt lat="44.79932" lon="1.6347">
        <ele>152.03</ele>
        <time>2014-05-08T10:01:28Z</time>
      </trkpt>
      <trkpt lat="44.79932" lon="1.6347">
        <ele>152.03</ele>
        <time>2014-05-08T10:01:55Z</time>
      </trkpt>
      <trkpt lat="44.79932" lon="1.63469">
        <ele>152.03</ele>
        <time>2014-05-08T10:02:19Z</time>
      </trkpt>
      <trkpt lat="44.79932" lon="1.63469">
        <ele>152.03</ele>
        <time>2014-05-08T10:02:50Z</time>
      </trkpt>
      <trkpt lat="44.79932" lon="1.63469">
        <ele>152.03</ele>
        <time>2014-05-08T10:03:19Z</time>
      </trkpt>
      <trkpt lat="44.79932" lon="1.63468">
        <ele>151.54</ele>
        <time>2014-05-08T10:03:52Z</time>
      </trkpt>
      <trkpt lat="44.79932" lon="1.63468">
        <ele>152.03</ele>
        <time>2014-05-08T10:04:15Z</time>
      </trkpt>
      <trkpt lat="44.79932" lon="1.63468">
        <ele>151.54</ele>
        <time>2014-05-08T10:04:46Z</time>
      </trkpt>
      <trkpt lat="44.79933" lon="1.63468">
        <ele>151.06</ele>
        <time>2014-05-08T10:05:19Z</time>
      </trkpt>
      <trkpt lat="44.79932" lon="1.63467">
        <ele>151.06</ele>
        <time>2014-05-08T10:05:45Z</time>
      </trkpt>
      <trkpt lat="44.79933" lon="1.63468">
        <ele>151.06</ele>
        <time>2014-05-08T10:06:17Z</time>
      </trkpt>
      <trkpt lat="44.79933" lon="1.63468">
        <ele>151.54</ele>
        <time>2014-05-08T10:06:46Z</time>
      </trkpt>
      <trkpt lat="44.79933" lon="1.63468">
        <ele>151.54</ele>
        <time>2014-05-08T10:07:07Z</time>
      </trkpt>
      <trkpt lat="44.79933" lon="1.63468">
        <ele>151.06</ele>
        <time>2014-05-08T10:07:35Z</time>
      </trkpt>
      <trkpt lat="44.79933" lon="1.63466">
        <ele>151.06</ele>
        <time>2014-05-08T10:07:57Z</time>
      </trkpt>
      <trkpt lat="44.79933" lon="1.63459">
        <ele>151.06</ele>
        <time>2014-05-08T10:08:09Z</time>
      </trkpt>
      <trkpt lat="44.79936" lon="1.63443">
        <ele>151.06</ele>
        <time>2014-05-08T10:08:24Z</time>
      </trkpt>
      <trkpt lat="44.79939" lon="1.63428">
        <ele>151.54</ele>
        <time>2014-05-08T10:08:38Z</time>
      </trkpt>
      <trkpt lat="44.79941" lon="1.63414">
        <ele>151.54</ele>
        <time>2014-05-08T10:08:49Z</time>
      </trkpt>
      <trkpt lat="44.79943" lon="1.63407">
        <ele>152.51</ele>
        <time>2014-05-08T10:09:00Z</time>
      </trkpt>
      <trkpt lat="44.79945" lon="1.63392">
        <ele>152.51</ele>
        <time>2014-05-08T10:09:12Z</time>
      </trkpt>
      <trkpt lat="44.79946" lon="1.63378">
        <ele>153.47</ele>
        <time>2014-05-08T10:09:24Z</time>
      </trkpt>
      <trkpt lat="44.79948" lon="1.63368">
        <ele>153.95</ele>
        <time>2014-05-08T10:09:31Z</time>
      </trkpt>
      <trkpt lat="44.79951" lon="1.6335">
        <ele>154.43</ele>
        <time>2014-05-08T10:09:45Z</time>
      </trkpt>
      <trkpt lat="44.79953" lon="1.63333">
        <ele>154.91</ele>
        <time>2014-05-08T10:09:58Z</time>
      </trkpt>
      <trkpt lat="44.79954" lon="1.6333">
        <ele>154.43</ele>
        <time>2014-05-08T10:10:00Z</time>
      </trkpt>
      <trkpt lat="44.79955" lon="1.63311">
        <ele>153.95</ele>
        <time>2014-05-08T10:10:16Z</time>
      </trkpt>
      <trkpt lat="44.79957" lon="1.63295">
        <ele>152.99</ele>
        <time>2014-05-08T10:10:29Z</time>
      </trkpt>
      <trkpt lat="44.7996" lon="1.63278">
        <ele>151.54</ele>
        <time>2014-05-08T10:10:43Z</time>
      </trkpt>
      <trkpt lat="44.79963" lon="1.63267">
        <ele>150.1</ele>
        <time>2014-05-08T10:10:52Z</time>
      </trkpt>
      <trkpt lat="44.7997" lon="1.63249">
        <ele>147.7</ele>
        <time>2014-05-08T10:11:06Z</time>
      </trkpt>
      <trkpt lat="44.79971" lon="1.63231">
        <ele>146.74</ele>
        <time>2014-05-08T10:11:19Z</time>
      </trkpt>
      <trkpt lat="44.79971" lon="1.63226">
        <ele>146.74</ele>
        <time>2014-05-08T10:11:23Z</time>
      </trkpt>
      <trkpt lat="44.79972" lon="1.63201">
        <ele>146.74</ele>
        <time>2014-05-08T10:11:38Z</time>
      </trkpt>
      <trkpt lat="44.79978" lon="1.63181">
        <ele>147.22</ele>
        <time>2014-05-08T10:11:51Z</time>
      </trkpt>
      <trkpt lat="44.79979" lon="1.6318">
        <ele>147.22</ele>
        <time>2014-05-08T10:11:52Z</time>
      </trkpt>
      <trkpt lat="44.79982" lon="1.63174">
        <ele>147.22</ele>
        <time>2014-05-08T10:11:56Z</time>
      </trkpt>
      <trkpt lat="44.7999" lon="1.63158">
        <ele>148.66</ele>
        <time>2014-05-08T10:12:10Z</time>
      </trkpt>
      <trkpt lat="44.79995" lon="1.63148">
        <ele>148.66</ele>
        <time>2014-05-08T10:12:17Z</time>
      </trkpt>
      <trkpt lat="44.80005" lon="1.63128">
        <ele>148.66</ele>
        <time>2014-05-08T10:12:33Z</time>
      </trkpt>
      <trkpt lat="44.80008" lon="1.63118">
        <ele>148.66</ele>
        <time>2014-05-08T10:12:40Z</time>
      </trkpt>
      <trkpt lat="44.80015" lon="1.63095">
        <ele>148.18</ele>
        <time>2014-05-08T10:12:55Z</time>
      </trkpt>
      <trkpt lat="44.8002" lon="1.63079">
        <ele>147.7</ele>
        <time>2014-05-08T10:13:07Z</time>
      </trkpt>
      <trkpt lat="44.80022" lon="1.63072">
        <ele>147.7</ele>
        <time>2014-05-08T10:13:12Z</time>
      </trkpt>
      <trkpt lat="44.80028" lon="1.63055">
        <ele>147.22</ele>
        <time>2014-05-08T10:13:26Z</time>
      </trkpt>
      <trkpt lat="44.80035" lon="1.63034">
        <ele>147.22</ele>
        <time>2014-05-08T10:13:41Z</time>
      </trkpt>
      <trkpt lat="44.80037" lon="1.6303">
        <ele>147.22</ele>
        <time>2014-05-08T10:13:45Z</time>
      </trkpt>
      <trkpt lat="44.80042" lon="1.63011">
        <ele>146.74</ele>
        <time>2014-05-08T10:14:00Z</time>
      </trkpt>
      <trkpt lat="44.80049" lon="1.6299">
        <ele>146.26</ele>
        <time>2014-05-08T10:14:16Z</time>
      </trkpt>
      <trkpt lat="44.80056" lon="1.62969">
        <ele>146.26</ele>
        <time>2014-05-08T10:14:32Z</time>
      </trkpt>
      <trkpt lat="44.8006" lon="1.62951">
        <ele>146.26</ele>
        <time>2014-05-08T10:14:46Z</time>
      </trkpt>
      <trkpt lat="44.80064" lon="1.6293">
        <ele>146.74</ele>
        <time>2014-05-08T10:15:02Z</time>
      </trkpt>
      <trkpt lat="44.80067" lon="1.6291">
        <ele>146.26</ele>
        <time>2014-05-08T10:15:16Z</time>
      </trkpt>
      <trkpt lat="44.80072" lon="1.62891">
        <ele>146.26</ele>
        <time>2014-05-08T10:15:30Z</time>
      </trkpt>
      <trkpt lat="44.80074" lon="1.62871">
        <ele>146.26</ele>
        <time>2014-05-08T10:15:44Z</time>
      </trkpt>
      <trkpt lat="44.80074" lon="1.62859">
        <ele>146.26</ele>
        <time>2014-05-08T10:15:52Z</time>
      </trkpt>
      <trkpt lat="44.80075" lon="1.62856">
        <ele>145.78</ele>
        <time>2014-05-08T10:15:55Z</time>
      </trkpt>
      <trkpt lat="44.80076" lon="1.62849">
        <ele>146.74</ele>
        <time>2014-05-08T10:15:59Z</time>
      </trkpt>
      <trkpt lat="44.80077" lon="1.6283">
        <ele>146.26</ele>
        <time>2014-05-08T10:16:14Z</time>
      </trkpt>
      <trkpt lat="44.8008" lon="1.62811">
        <ele>145.3</ele>
        <time>2014-05-08T10:16:28Z</time>
      </trkpt>
      <trkpt lat="44.80081" lon="1.62793">
        <ele>144.82</ele>
        <time>2014-05-08T10:16:40Z</time>
      </trkpt>
      <trkpt lat="44.80083" lon="1.62774">
        <ele>143.85</ele>
        <time>2014-05-08T10:16:53Z</time>
      </trkpt>
      <trkpt lat="44.80085" lon="1.62752">
        <ele>143.37</ele>
        <time>2014-05-08T10:17:07Z</time>
      </trkpt>
      <trkpt lat="44.80086" lon="1.62747">
        <ele>143.37</ele>
        <time>2014-05-08T10:17:12Z</time>
      </trkpt>
      <trkpt lat="44.8009" lon="1.62727">
        <ele>142.89</ele>
        <time>2014-05-08T10:17:26Z</time>
      </trkpt>
      <trkpt lat="44.80091" lon="1.62708">
        <ele>143.37</ele>
        <time>2014-05-08T10:17:39Z</time>
      </trkpt>
      <trkpt lat="44.80092" lon="1.62692">
        <ele>142.89</ele>
        <time>2014-05-08T10:17:51Z</time>
      </trkpt>
      <trkpt lat="44.80095" lon="1.62674">
        <ele>142.41</ele>
        <time>2014-05-08T10:18:04Z</time>
      </trkpt>
      <trkpt lat="44.80096" lon="1.6267">
        <ele>142.41</ele>
        <time>2014-05-08T10:18:06Z</time>
      </trkpt>
      <trkpt lat="44.80102" lon="1.62651">
        <ele>142.41</ele>
        <time>2014-05-08T10:18:19Z</time>
      </trkpt>
      <trkpt lat="44.80103" lon="1.62645">
        <ele>141.93</ele>
        <time>2014-05-08T10:18:23Z</time>
      </trkpt>
      <trkpt lat="44.80107" lon="1.62628">
        <ele>141.93</ele>
        <time>2014-05-08T10:18:36Z</time>
      </trkpt>
      <trkpt lat="44.80111" lon="1.62612">
        <ele>141.93</ele>
        <time>2014-05-08T10:18:49Z</time>
      </trkpt>
      <trkpt lat="44.80114" lon="1.62601">
        <ele>142.41</ele>
        <time>2014-05-08T10:18:57Z</time>
      </trkpt>
      <trkpt lat="44.80122" lon="1.62585">
        <ele>141.45</ele>
        <time>2014-05-08T10:19:11Z</time>
      </trkpt>
      <trkpt lat="44.80126" lon="1.62574">
        <ele>141.45</ele>
        <time>2014-05-08T10:19:18Z</time>
      </trkpt>
      <trkpt lat="44.80129" lon="1.6257">
        <ele>141.45</ele>
        <time>2014-05-08T10:19:21Z</time>
      </trkpt>
      <trkpt lat="44.80141" lon="1.62547">
        <ele>140.97</ele>
        <time>2014-05-08T10:19:37Z</time>
      </trkpt>
      <trkpt lat="44.80153" lon="1.62528">
        <ele>140.97</ele>
        <time>2014-05-08T10:19:53Z</time>
      </trkpt>
      <trkpt lat="44.80165" lon="1.6251">
        <ele>140.97</ele>
        <time>2014-05-08T10:20:10Z</time>
      </trkpt>
      <trkpt lat="44.80174" lon="1.62498">
        <ele>140.49</ele>
        <time>2014-05-08T10:20:24Z</time>
      </trkpt>
      <trkpt lat="44.80175" lon="1.62497">
        <ele>140.97</ele>
        <time>2014-05-08T10:20:28Z</time>
      </trkpt>
      <trkpt lat="44.80185" lon="1.62486">
        <ele>140.49</ele>
        <time>2014-05-08T10:20:43Z</time>
      </trkpt>
      <trkpt lat="44.80195" lon="1.62471">
        <ele>140.97</ele>
        <time>2014-05-08T10:20:58Z</time>
      </trkpt>
      <trkpt lat="44.80211" lon="1.62456">
        <ele>140.49</ele>
        <time>2014-05-08T10:21:14Z</time>
      </trkpt>
      <trkpt lat="44.80222" lon="1.62442">
        <ele>140.49</ele>
        <time>2014-05-08T10:21:28Z</time>
      </trkpt>
      <trkpt lat="44.80222" lon="1.62442">
        <ele>140.97</ele>
        <time>2014-05-08T10:21:52Z</time>
      </trkpt>
      <trkpt lat="44.80222" lon="1.62442">
        <ele>140.97</ele>
        <time>2014-05-08T10:22:21Z</time>
      </trkpt>
      <trkpt lat="44.80227" lon="1.62436">
        <ele>141.45</ele>
        <time>2014-05-08T10:22:41Z</time>
      </trkpt>
      <trkpt lat="44.80228" lon="1.62438">
        <ele>141.45</ele>
        <time>2014-05-08T10:22:53Z</time>
      </trkpt>
      <trkpt lat="44.80227" lon="1.62438">
        <ele>141.45</ele>
        <time>2014-05-08T10:23:10Z</time>
      </trkpt>
      <trkpt lat="44.80227" lon="1.62438">
        <ele>141.45</ele>
        <time>2014-05-08T10:23:39Z</time>
      </trkpt>
      <trkpt lat="44.80227" lon="1.62438">
        <ele>141.45</ele>
        <time>2014-05-08T10:23:59Z</time>
      </trkpt>
      <trkpt lat="44.80227" lon="1.62438">
        <ele>141.93</ele>
        <time>2014-05-08T10:24:24Z</time>
      </trkpt>
      <trkpt lat="44.80227" lon="1.62438">
        <ele>141.93</ele>
        <time>2014-05-08T10:24:47Z</time>
      </trkpt>
      <trkpt lat="44.80227" lon="1.62436">
        <ele>141.93</ele>
        <time>2014-05-08T10:25:11Z</time>
      </trkpt>
      <trkpt lat="44.80232" lon="1.62427">
        <ele>141.93</ele>
        <time>2014-05-08T10:25:20Z</time>
      </trkpt>
      <trkpt lat="44.8024" lon="1.62413">
        <ele>142.41</ele>
        <time>2014-05-08T10:25:34Z</time>
      </trkpt>
      <trkpt lat="44.80244" lon="1.62398">
        <ele>142.41</ele>
        <time>2014-05-08T10:25:48Z</time>
      </trkpt>
      <trkpt lat="44.80247" lon="1.62389">
        <ele>142.41</ele>
        <time>2014-05-08T10:25:58Z</time>
      </trkpt>
      <trkpt lat="44.80248" lon="1.62375">
        <ele>142.89</ele>
        <time>2014-05-08T10:26:11Z</time>
      </trkpt>
      <trkpt lat="44.80248" lon="1.62361">
        <ele>142.89</ele>
        <time>2014-05-08T10:26:26Z</time>
      </trkpt>
      <trkpt lat="44.80247" lon="1.62355">
        <ele>142.89</ele>
        <time>2014-05-08T10:26:40Z</time>
      </trkpt>
      <trkpt lat="44.80243" lon="1.62346">
        <ele>142.41</ele>
        <time>2014-05-08T10:26:50Z</time>
      </trkpt>
      <trkpt lat="44.80241" lon="1.62327">
        <ele>142.41</ele>
        <time>2014-05-08T10:27:04Z</time>
      </trkpt>
      <trkpt lat="44.80238" lon="1.62312">
        <ele>141.93</ele>
        <time>2014-05-08T10:27:17Z</time>
      </trkpt>
      <trkpt lat="44.80236" lon="1.62307">
        <ele>141.93</ele>
        <time>2014-05-08T10:27:21Z</time>
      </trkpt>
      <trkpt lat="44.80228" lon="1.62292">
        <ele>141.93</ele>
        <time>2014-05-08T10:27:35Z</time>
      </trkpt>
      <trkpt lat="44.80218" lon="1.62279">
        <ele>142.41</ele>
        <time>2014-05-08T10:27:49Z</time>
      </trkpt>
      <trkpt lat="44.80217" lon="1.62277">
        <ele>142.41</ele>
        <time>2014-05-08T10:27:58Z</time>
      </trkpt>
      <trkpt lat="44.80206" lon="1.6226">
        <ele>142.89</ele>
        <time>2014-05-08T10:28:14Z</time>
      </trkpt>
      <trkpt lat="44.80205" lon="1.62251">
        <ele>142.89</ele>
        <time>2014-05-08T10:28:23Z</time>
      </trkpt>
      <trkpt lat="44.80209" lon="1.62245">
        <ele>142.89</ele>
        <time>2014-05-08T10:28:36Z</time>
      </trkpt>
      <trkpt lat="44.8021" lon="1.62244">
        <ele>142.89</ele>
        <time>2014-05-08T10:28:56Z</time>
      </trkpt>
      <trkpt lat="44.80211" lon="1.62233">
        <ele>142.41</ele>
        <time>2014-05-08T10:29:12Z</time>
      </trkpt>
      <trkpt lat="44.8021" lon="1.62226">
        <ele>142.41</ele>
        <time>2014-05-08T10:29:18Z</time>
      </trkpt>
      <trkpt lat="44.80212" lon="1.62221">
        <ele>142.41</ele>
        <time>2014-05-08T10:29:29Z</time>
      </trkpt>
      <trkpt lat="44.80212" lon="1.62203">
        <ele>142.41</ele>
        <time>2014-05-08T10:29:43Z</time>
      </trkpt>
      <trkpt lat="44.80203" lon="1.62185">
        <ele>143.37</ele>
        <time>2014-05-08T10:30:00Z</time>
      </trkpt>
      <trkpt lat="44.80197" lon="1.62174">
        <ele>143.85</ele>
        <time>2014-05-08T10:30:12Z</time>
      </trkpt>
      <trkpt lat="44.80188" lon="1.62158">
        <ele>144.82</ele>
        <time>2014-05-08T10:30:28Z</time>
      </trkpt>
      <trkpt lat="44.80186" lon="1.6215">
        <ele>145.3</ele>
        <time>2014-05-08T10:30:36Z</time>
      </trkpt>
      <trkpt lat="44.80186" lon="1.62142">
        <ele>145.3</ele>
        <time>2014-05-08T10:30:47Z</time>
      </trkpt>
      <trkpt lat="44.80183" lon="1.62132">
        <ele>146.26</ele>
        <time>2014-05-08T10:30:59Z</time>
      </trkpt>
      <trkpt lat="44.80181" lon="1.62124">
        <ele>146.26</ele>
        <time>2014-05-08T10:31:12Z</time>
      </trkpt>
      <trkpt lat="44.80179" lon="1.62118">
        <ele>148.18</ele>
        <time>2014-05-08T10:31:22Z</time>
      </trkpt>
      <trkpt lat="44.80176" lon="1.62108">
        <ele>149.62</ele>
        <time>2014-05-08T10:31:32Z</time>
      </trkpt>
      <trkpt lat="44.80173" lon="1.62094">
        <ele>152.03</ele>
        <time>2014-05-08T10:31:45Z</time>
      </trkpt>
      <trkpt lat="44.80171" lon="1.62084">
        <ele>153.95</ele>
        <time>2014-05-08T10:31:59Z</time>
      </trkpt>
      <trkpt lat="44.80168" lon="1.62075">
        <ele>155.39</ele>
        <time>2014-05-08T10:32:14Z</time>
      </trkpt>
      <trkpt lat="44.80165" lon="1.62061">
        <ele>157.31</ele>
        <time>2014-05-08T10:32:28Z</time>
      </trkpt>
      <trkpt lat="44.80156" lon="1.62057">
        <ele>159.24</ele>
        <time>2014-05-08T10:32:41Z</time>
      </trkpt>
      <trkpt lat="44.8015" lon="1.62045">
        <ele>161.16</ele>
        <time>2014-05-08T10:32:58Z</time>
      </trkpt>
      <trkpt lat="44.80148" lon="1.62035">
        <ele>163.08</ele>
        <time>2014-05-08T10:33:14Z</time>
      </trkpt>
      <trkpt lat="44.80147" lon="1.62028">
        <ele>164.04</ele>
        <time>2014-05-08T10:33:26Z</time>
      </trkpt>
      <trkpt lat="44.80144" lon="1.62015">
        <ele>165.48</ele>
        <time>2014-05-08T10:33:39Z</time>
      </trkpt>
      <trkpt lat="44.80141" lon="1.62004">
        <ele>167.41</ele>
        <time>2014-05-08T10:33:51Z</time>
      </trkpt>
      <trkpt lat="44.80139" lon="1.61998">
        <ele>168.85</ele>
        <time>2014-05-08T10:34:03Z</time>
      </trkpt>
      <trkpt lat="44.80136" lon="1.61993">
        <ele>171.73</ele>
        <time>2014-05-08T10:34:17Z</time>
      </trkpt>
      <trkpt lat="44.80131" lon="1.61987">
        <ele>173.17</ele>
        <time>2014-05-08T10:34:28Z</time>
      </trkpt>
      <trkpt lat="44.8013" lon="1.61977">
        <ele>173.66</ele>
        <time>2014-05-08T10:34:40Z</time>
      </trkpt>
      <trkpt lat="44.80128" lon="1.61967">
        <ele>175.58</ele>
        <time>2014-05-08T10:34:57Z</time>
      </trkpt>
      <trkpt lat="44.80129" lon="1.61955">
        <ele>175.58</ele>
        <time>2014-05-08T10:35:09Z</time>
      </trkpt>
      <trkpt lat="44.80132" lon="1.61953">
        <ele>176.06</ele>
        <time>2014-05-08T10:35:21Z</time>
      </trkpt>
      <trkpt lat="44.80127" lon="1.61945">
        <ele>175.58</ele>
        <time>2014-05-08T10:35:35Z</time>
      </trkpt>
      <trkpt lat="44.80125" lon="1.61937">
        <ele>175.1</ele>
        <time>2014-05-08T10:35:49Z</time>
      </trkpt>
      <trkpt lat="44.80121" lon="1.6193">
        <ele>174.14</ele>
        <time>2014-05-08T10:36:05Z</time>
      </trkpt>
      <trkpt lat="44.80119" lon="1.61929">
        <ele>174.14</ele>
        <time>2014-05-08T10:36:17Z</time>
      </trkpt>
      <trkpt lat="44.80119" lon="1.6193">
        <ele>174.14</ele>
        <time>2014-05-08T10:36:32Z</time>
      </trkpt>
      <trkpt lat="44.80119" lon="1.6193">
        <ele>174.14</ele>
        <time>2014-05-08T10:36:57Z</time>
      </trkpt>
      <trkpt lat="44.8012" lon="1.61929">
        <ele>174.62</ele>
        <time>2014-05-08T10:37:20Z</time>
      </trkpt>
      <trkpt lat="44.80121" lon="1.61925">
        <ele>167.41</ele>
        <time>2014-05-08T10:37:35Z</time>
      </trkpt>
      <trkpt lat="44.80121" lon="1.61925">
        <ele>179.9</ele>
        <time>2014-05-08T10:37:36Z</time>
      </trkpt>
      <trkpt lat="44.80121" lon="1.61925">
        <ele>177.02</ele>
        <time>2014-05-08T10:37:37Z</time>
      </trkpt>
      <trkpt lat="44.80121" lon="1.61925">
        <ele>175.1</ele>
        <time>2014-05-08T10:37:38Z</time>
      </trkpt>
      <trkpt lat="44.80122" lon="1.61928">
        <ele>174.14</ele>
        <time>2014-05-08T10:38:04Z</time>
      </trkpt>
      <trkpt lat="44.80123" lon="1.61928">
        <ele>174.14</ele>
        <time>2014-05-08T10:38:27Z</time>
      </trkpt>
      <trkpt lat="44.80121" lon="1.61931">
        <ele>174.14</ele>
        <time>2014-05-08T10:38:39Z</time>
      </trkpt>
      <trkpt lat="44.8012" lon="1.61932">
        <ele>174.14</ele>
        <time>2014-05-08T10:38:56Z</time>
      </trkpt>
      <trkpt lat="44.8012" lon="1.61932">
        <ele>174.14</ele>
        <time>2014-05-08T10:39:18Z</time>
      </trkpt>
      <trkpt lat="44.8012" lon="1.61933">
        <ele>174.14</ele>
        <time>2014-05-08T10:39:41Z</time>
      </trkpt>
      <trkpt lat="44.8012" lon="1.61933">
        <ele>174.62</ele>
        <time>2014-05-08T10:40:01Z</time>
      </trkpt>
    </trkseg>
  </trk>
</gpx>